Time,TemperatureF,DewpointF,PressureIn,WindDirection,WindDirectionDegrees,WindSpeedMPH,WindSpeedGustMPH,Humidity,HourlyPrecipIn,Conditions,Clouds,dailyrainin,SoftwareType,DateUTC
2013-05-29 00:00:00,80.4,73.7,30.00,East,90,6.0,6.0,80,0.00,,---,0.00,VWS V13.01,2013-05-29 04:00:00,
2013-05-29 00:01:00,80.4,73.7,30.00,ESE,112,4.9,4.9,80,0.00,,---,0.00,VWS V13.01,2013-05-29 04:01:00,
2013-05-29 00:06:00,80.4,73.7,30.01,ESE,112,0.8,0.8,80,0.00,,---,0.00,VWS V13.01,2013-05-29 04:06:00,
2013-05-29 00:11:00,80.4,73.7,30.01,ENE,68,10.5,10.5,80,0.00,,---,0.00,VWS V13.01,2013-05-29 04:11:00,
2013-05-29 00:16:00,80.4,73.7,30.00,SSE,158,0.0,0.0,80,0.00,,---,0.00,VWS V13.01,2013-05-29 04:16:00,
2013-05-29 00:21:00,80.4,73.7,30.00,NE,45,1.5,1.5,80,0.00,,---,0.00,VWS V13.01,2013-05-29 04:21:00,
2013-05-29 00:26:00,80.4,73.7,30.00,SE,135,10.2,10.2,80,0.00,,---,0.00,VWS V13.01,2013-05-29 04:26:00,
2013-05-29 00:31:00,80.4,73.7,30.00,East,90,2.0,2.0,80,0.00,,---,0.00,VWS V13.01,2013-05-29 04:31:00,
2013-05-29 00:36:00,80.4,73.7,30.00,ESE,112,8.2,8.2,80,0.00,,---,0.00,VWS V13.01,2013-05-29 04:36:00,
2013-05-29 00:41:00,80.4,73.7,30.00,SE,135,0.0,0.0,80,0.00,,---,0.00,VWS V13.01,2013-05-29 04:41:00,
2013-05-29 00:42:00,80.4,73.7,30.00,East,90,0.0,0.0,80,0.00,,---,0.00,VWS V13.01,2013-05-29 04:42:00,
2013-05-29 00:46:00,80.4,73.7,30.00,ESE,112,3.8,3.8,80,0.00,,---,0.00,VWS V13.01,2013-05-29 04:46:00,
2013-05-29 00:47:00,80.4,73.7,30.00,East,90,7.1,7.1,80,0.00,,---,0.00,VWS V13.01,2013-05-29 04:47:00,
2013-05-29 00:51:00,80.4,73.7,30.00,ESE,112,0.0,0.0,80,0.00,,---,0.00,VWS V13.01,2013-05-29 04:51:00,
2013-05-29 00:52:00,80.4,73.7,30.00,ENE,68,1.1,1.1,80,0.00,,---,0.00,VWS V13.01,2013-05-29 04:52:00,
2013-05-29 00:56:00,80.4,73.7,30.00,East,90,3.5,3.5,80,0.00,,---,0.00,VWS V13.01,2013-05-29 04:56:00,
2013-05-29 00:57:00,80.4,73.7,30.00,NE,45,5.3,5.3,80,0.00,,---,0.00,VWS V13.01,2013-05-29 04:57:00,
2013-05-29 01:01:00,80.4,73.7,30.00,ESE,112,3.3,3.3,80,0.00,,---,0.00,VWS V13.01,2013-05-29 05:01:00,
2013-05-29 01:02:00,80.4,73.7,30.00,ESE,112,7.8,7.8,80,0.00,,---,0.00,VWS V13.01,2013-05-29 05:02:00,
2013-05-29 01:06:00,80.4,73.7,29.99,NE,45,8.2,8.2,80,0.00,,---,0.00,VWS V13.01,2013-05-29 05:06:00,
2013-05-29 01:07:00,80.4,73.7,30.00,ENE,68,2.2,2.2,80,0.00,,---,0.00,VWS V13.01,2013-05-29 05:07:00,
2013-05-29 01:11:00,80.4,73.7,30.00,ESE,112,0.0,8.9,80,0.00,,---,0.00,VWS V13.01,2013-05-29 05:11:00,
2013-05-29 01:12:00,80.4,73.7,30.00,ESE,112,0.0,0.0,80,0.00,,---,0.00,VWS V13.01,2013-05-29 05:12:00,
2013-05-29 01:17:00,80.4,73.7,29.99,SE,135,7.3,7.3,80,0.00,,---,0.00,VWS V13.01,2013-05-29 05:17:00,
2013-05-29 01:22:00,80.4,73.7,29.99,ENE,68,3.5,3.5,80,0.00,,---,0.00,VWS V13.01,2013-05-29 05:22:00,
2013-05-29 01:27:00,80.4,73.7,29.99,SE,135,0.0,0.0,80,0.00,,---,0.00,VWS V13.01,2013-05-29 05:27:00,
2013-05-29 01:32:00,80.4,73.7,29.99,SSE,158,0.0,0.0,80,0.00,,---,0.00,VWS V13.01,2013-05-29 05:32:00,
2013-05-29 01:37:00,80.4,73.7,29.99,ENE,68,0.0,0.0,80,0.00,,---,0.00,VWS V13.01,2013-05-29 05:37:00,
2013-05-29 01:42:00,80.2,73.5,29.99,SSE,158,7.8,7.8,80,0.00,,---,0.00,VWS V13.01,2013-05-29 05:42:00,
2013-05-29 01:47:00,80.2,73.5,29.99,ESE,112,8.9,8.9,80,0.00,,---,0.00,VWS V13.01,2013-05-29 05:47:00,
2013-05-29 01:52:00,80.2,73.5,29.98,ESE,112,4.9,4.9,80,0.00,,---,0.00,VWS V13.01,2013-05-29 05:52:00,
2013-05-29 01:53:00,80.2,73.5,29.98,ENE,68,0.0,0.0,80,0.00,,---,0.00,VWS V13.01,2013-05-29 05:53:00,
2013-05-29 01:57:00,80.2,73.5,29.99,NE,45,5.5,5.5,80,0.00,,---,0.00,VWS V13.01,2013-05-29 05:57:00,
2013-05-29 01:58:00,80.2,73.5,29.99,NE,45,1.1,1.1,80,0.00,,---,0.00,VWS V13.01,2013-05-29 05:58:00,
2013-05-29 02:02:00,80.2,73.5,29.99,ESE,112,0.0,0.0,80,0.00,,---,0.00,VWS V13.01,2013-05-29 06:02:00,
2013-05-29 02:03:00,80.2,73.5,29.99,NE,45,0.0,0.0,80,0.00,,---,0.00,VWS V13.01,2013-05-29 06:03:00,
2013-05-29 02:07:00,80.2,73.5,29.99,ESE,112,0.0,0.0,80,0.00,,---,0.00,VWS V13.01,2013-05-29 06:07:00,
2013-05-29 02:08:00,80.2,73.5,29.99,ESE,112,0.0,0.0,80,0.00,,---,0.00,VWS V13.01,2013-05-29 06:08:00,
2013-05-29 02:09:00,80.2,73.5,29.99,NE,45,5.5,5.5,80,0.00,,---,0.00,VWS V13.01,2013-05-29 06:09:00,
2013-05-29 02:13:00,80.2,73.5,29.99,SE,135,2.9,2.9,80,0.00,,---,0.00,VWS V13.01,2013-05-29 06:13:00,
2013-05-29 02:14:00,80.2,73.5,29.99,ENE,68,2.2,2.2,80,0.00,,---,0.00,VWS V13.01,2013-05-29 06:14:00,
2013-05-29 02:18:00,80.0,73.3,29.99,ENE,68,2.0,2.0,80,0.00,,---,0.00,VWS V13.01,2013-05-29 06:18:00,
2013-05-29 02:19:00,80.0,73.3,29.99,ENE,68,0.0,0.0,80,0.00,,---,0.00,VWS V13.01,2013-05-29 06:19:00,
2013-05-29 02:23:00,80.0,73.3,29.99,ENE,68,0.0,0.0,80,0.00,,---,0.00,VWS V13.01,2013-05-29 06:23:00,
2013-05-29 02:24:00,80.0,73.3,30.00,SSE,158,2.9,2.9,80,0.00,,---,0.00,VWS V13.01,2013-05-29 06:24:00,
2013-05-29 02:28:00,80.0,73.3,29.99,ESE,112,0.0,0.0,80,0.00,,---,0.00,VWS V13.01,2013-05-29 06:28:00,
2013-05-29 02:29:00,80.0,73.3,29.99,ENE,68,0.0,0.0,80,0.00,,---,0.00,VWS V13.01,2013-05-29 06:29:00,
2013-05-29 02:33:00,79.8,73.1,29.99,ENE,68,6.0,6.0,80,0.00,,---,0.00,VWS V13.01,2013-05-29 06:33:00,
2013-05-29 02:34:00,79.8,73.1,29.99,East,90,1.1,1.1,80,0.00,,---,0.00,VWS V13.01,2013-05-29 06:34:00,
2013-05-29 02:38:00,79.8,73.1,30.00,SE,135,0.0,0.0,80,0.00,,---,0.00,VWS V13.01,2013-05-29 06:38:00,
2013-05-29 02:39:00,79.8,73.1,30.00,ESE,112,0.0,0.0,80,0.00,,---,0.00,VWS V13.01,2013-05-29 06:39:00,
2013-05-29 02:43:00,79.8,73.1,30.00,ENE,68,3.1,3.1,80,0.00,,---,0.00,VWS V13.01,2013-05-29 06:43:00,
2013-05-29 02:44:00,79.8,73.1,29.99,ESE,112,2.2,2.2,80,0.00,,---,0.00,VWS V13.01,2013-05-29 06:44:00,
2013-05-29 02:48:00,79.8,73.1,29.99,NE,45,0.0,0.0,80,0.00,,---,0.00,VWS V13.01,2013-05-29 06:48:00,
2013-05-29 02:49:00,79.8,73.1,29.99,East,90,0.0,0.0,80,0.00,,---,0.00,VWS V13.01,2013-05-29 06:49:00,
2013-05-29 02:53:00,79.8,72.7,29.99,East,90,2.4,2.4,79,0.00,,---,0.00,VWS V13.01,2013-05-29 06:53:00,
2013-05-29 02:54:00,79.8,72.7,29.99,North,0,0.0,0.0,79,0.00,,---,0.00,VWS V13.01,2013-05-29 06:54:00,
2013-05-29 02:58:00,79.8,72.7,29.99,ESE,112,0.0,0.0,79,0.00,,---,0.00,VWS V13.01,2013-05-29 06:58:00,
2013-05-29 02:59:00,79.8,72.7,29.99,ESE,112,0.0,0.0,79,0.00,,---,0.00,VWS V13.01,2013-05-29 06:59:00,
2013-05-29 03:03:00,79.8,72.7,29.98,NNE,22,3.5,3.5,79,0.00,,---,0.00,VWS V13.01,2013-05-29 07:03:00,
2013-05-29 03:04:00,79.8,72.7,29.98,ESE,112,11.4,11.4,79,0.00,,---,0.00,VWS V13.01,2013-05-29 07:04:00,
2013-05-29 03:08:00,79.8,72.7,29.98,SE,135,0.0,0.0,79,0.00,,---,0.00,VWS V13.01,2013-05-29 07:08:00,
2013-05-29 03:09:00,79.8,72.7,29.98,East,90,0.0,0.0,79,0.00,,---,0.00,VWS V13.01,2013-05-29 07:09:00,
2013-05-29 03:13:00,79.8,73.1,29.98,ESE,112,0.0,0.0,80,0.00,,---,0.00,VWS V13.01,2013-05-29 07:13:00,
2013-05-29 03:14:00,79.8,73.1,29.99,ESE,112,0.0,0.0,80,0.00,,---,0.00,VWS V13.01,2013-05-29 07:14:00,
2013-05-29 03:15:00,79.8,73.1,29.99,NE,45,0.0,0.0,80,0.00,,---,0.00,VWS V13.01,2013-05-29 07:15:00,
2013-05-29 03:18:00,79.7,73.0,29.98,ESE,112,0.0,0.0,80,0.00,,---,0.00,VWS V13.01,2013-05-29 07:18:00,
2013-05-29 03:19:00,79.7,73.0,29.98,SSE,158,5.3,5.3,80,0.00,,---,0.00,VWS V13.01,2013-05-29 07:19:00,
2013-05-29 03:20:00,79.7,73.0,29.98,ESE,112,5.1,5.1,80,0.00,,---,0.00,VWS V13.01,2013-05-29 07:20:00,
2013-05-29 03:23:00,79.7,73.0,29.98,NW,315,0.0,0.0,80,0.00,,---,0.00,VWS V13.01,2013-05-29 07:23:00,
2013-05-29 03:24:00,79.7,73.0,29.98,East,90,0.0,0.0,80,0.00,,---,0.00,VWS V13.01,2013-05-29 07:24:00,
2013-05-29 03:25:00,79.7,73.0,29.98,SE,135,1.7,1.7,80,0.00,,---,0.00,VWS V13.01,2013-05-29 07:25:00,
2013-05-29 03:28:00,79.7,73.0,29.98,ENE,68,0.0,0.0,80,0.00,,---,0.00,VWS V13.01,2013-05-29 07:28:00,
2013-05-29 03:29:00,79.7,73.0,29.98,ENE,68,0.0,0.0,80,0.00,,---,0.00,VWS V13.01,2013-05-29 07:29:00,
2013-05-29 03:30:00,79.7,73.0,29.98,NE,45,0.0,0.0,80,0.00,,---,0.00,VWS V13.01,2013-05-29 07:30:00,
2013-05-29 03:34:00,79.7,73.0,29.98,SE,135,0.0,0.0,80,0.00,,---,0.00,VWS V13.01,2013-05-29 07:34:00,
2013-05-29 03:35:00,79.7,73.0,29.98,East,90,0.0,2.4,80,0.00,,---,0.00,VWS V13.01,2013-05-29 07:35:00,
2013-05-29 03:39:00,79.7,73.0,29.98,ENE,68,2.0,2.0,80,0.00,,---,0.00,VWS V13.01,2013-05-29 07:39:00,
2013-05-29 03:41:00,79.7,73.0,29.98,ESE,112,0.0,0.0,80,0.00,,---,0.00,VWS V13.01,2013-05-29 07:41:00,
2013-05-29 03:44:00,79.7,73.0,29.98,NE,45,0.0,0.0,80,0.00,,---,0.00,VWS V13.01,2013-05-29 07:44:00,
2013-05-29 03:46:00,79.7,73.0,29.98,ENE,68,0.0,0.0,80,0.00,,---,0.00,VWS V13.01,2013-05-29 07:46:00,
2013-05-29 03:49:00,79.7,73.0,29.98,NE,45,9.6,9.6,80,0.00,,---,0.00,VWS V13.01,2013-05-29 07:49:00,
2013-05-29 03:51:00,79.5,72.8,29.98,ENE,68,0.0,0.0,80,0.00,,---,0.00,VWS V13.01,2013-05-29 07:51:00,
2013-05-29 03:54:00,79.7,73.0,29.98,ESE,112,4.6,4.6,80,0.00,,---,0.00,VWS V13.01,2013-05-29 07:54:00,
2013-05-29 03:56:00,79.7,73.0,29.98,ENE,68,4.9,4.9,80,0.00,,---,0.00,VWS V13.01,2013-05-29 07:56:00,
2013-05-29 03:59:00,79.7,73.0,29.98,East,90,2.2,2.2,80,0.00,,---,0.00,VWS V13.01,2013-05-29 07:59:00,
2013-05-29 04:01:00,79.7,73.0,29.98,ESE,112,2.2,2.2,80,0.00,,---,0.00,VWS V13.01,2013-05-29 08:01:00,
2013-05-29 04:04:00,79.7,73.4,29.98,ENE,68,4.4,4.4,81,0.00,,---,0.00,VWS V13.01,2013-05-29 08:04:00,
2013-05-29 04:05:00,79.7,73.4,29.98,SSE,158,0.0,0.0,81,0.00,,---,0.00,VWS V13.01,2013-05-29 08:05:00,
2013-05-29 04:06:00,79.7,73.4,29.98,East,90,0.0,0.0,81,0.00,,---,0.00,VWS V13.01,2013-05-29 08:06:00,
2013-05-29 04:09:00,79.7,73.4,29.98,ESE,112,0.0,0.0,81,0.00,,---,0.00,VWS V13.01,2013-05-29 08:09:00,
2013-05-29 04:10:00,79.7,73.4,29.98,ENE,68,0.0,0.0,81,0.00,,---,0.00,VWS V13.01,2013-05-29 08:10:00,
2013-05-29 04:11:00,79.7,73.4,29.98,ENE,68,0.0,0.0,81,0.00,,---,0.00,VWS V13.01,2013-05-29 08:11:00,
2013-05-29 04:14:00,79.7,73.4,29.98,South,180,2.4,2.4,81,0.00,,---,0.00,VWS V13.01,2013-05-29 08:14:00,
2013-05-29 04:15:00,79.7,73.4,29.98,SE,135,0.0,0.0,81,0.00,,---,0.00,VWS V13.01,2013-05-29 08:15:00,
2013-05-29 04:16:00,79.7,73.4,29.98,SSE,158,0.0,0.0,81,0.00,,---,0.00,VWS V13.01,2013-05-29 08:16:00,
2013-05-29 04:19:00,79.5,73.2,29.98,SSE,158,1.5,1.5,81,0.00,,---,0.00,VWS V13.01,2013-05-29 08:19:00,
2013-05-29 04:20:00,79.5,73.2,29.98,South,180,2.0,2.0,81,0.00,,---,0.00,VWS V13.01,2013-05-29 08:20:00,
2013-05-29 04:21:00,79.5,73.2,29.98,ENE,68,0.0,0.0,81,0.00,,---,0.00,VWS V13.01,2013-05-29 08:21:00,
2013-05-29 04:24:00,79.5,73.2,29.98,SSE,158,0.0,0.0,81,0.00,,---,0.00,VWS V13.01,2013-05-29 08:24:00,
2013-05-29 04:25:00,79.5,73.2,29.98,SSE,158,3.8,3.8,81,0.00,,---,0.00,VWS V13.01,2013-05-29 08:25:00,
2013-05-29 04:26:00,79.5,73.2,29.98,SSE,158,0.0,0.0,81,0.00,,---,0.00,VWS V13.01,2013-05-29 08:26:00,
2013-05-29 04:29:00,79.5,73.2,29.98,SE,135,0.0,0.0,81,0.00,,---,0.00,VWS V13.01,2013-05-29 08:29:00,
2013-05-29 04:30:00,79.5,73.2,29.98,SE,135,0.0,0.0,81,0.00,,---,0.00,VWS V13.01,2013-05-29 08:30:00,
2013-05-29 04:31:00,79.5,73.2,29.98,ESE,112,0.0,0.0,81,0.00,,---,0.00,VWS V13.01,2013-05-29 08:31:00,
2013-05-29 04:34:00,79.3,73.0,29.98,SSE,158,0.0,0.0,81,0.00,,---,0.00,VWS V13.01,2013-05-29 08:34:00,
2013-05-29 04:35:00,79.3,73.0,29.98,SSE,158,0.0,0.0,81,0.00,,---,0.00,VWS V13.01,2013-05-29 08:35:00,
2013-05-29 04:36:00,79.3,73.0,29.98,South,180,0.0,0.0,81,0.00,,---,0.00,VWS V13.01,2013-05-29 08:36:00,
2013-05-29 04:39:00,79.3,73.0,29.98,SSE,158,7.1,7.1,81,0.00,,---,0.00,VWS V13.01,2013-05-29 08:39:00,
2013-05-29 04:40:00,79.3,73.0,29.98,SSE,158,7.1,7.1,81,0.00,,---,0.00,VWS V13.01,2013-05-29 08:40:00,
2013-05-29 04:41:00,79.3,73.0,29.98,East,90,0.0,0.0,81,0.00,,---,0.00,VWS V13.01,2013-05-29 08:41:00,
2013-05-29 04:45:00,79.3,73.0,29.98,SSE,158,1.3,1.3,81,0.00,,---,0.00,VWS V13.01,2013-05-29 08:45:00,
2013-05-29 04:46:00,79.3,73.0,29.98,East,90,0.0,0.0,81,0.00,,---,0.00,VWS V13.01,2013-05-29 08:46:00,
2013-05-29 04:50:00,79.3,73.0,29.98,SE,135,5.1,5.1,81,0.00,,---,0.00,VWS V13.01,2013-05-29 08:50:00,
2013-05-29 04:51:00,79.3,73.0,29.98,SE,135,0.0,0.0,81,0.00,,---,0.00,VWS V13.01,2013-05-29 08:51:00,
2013-05-29 04:55:00,79.3,73.0,29.99,SSW,202,0.0,0.0,81,0.00,,---,0.00,VWS V13.01,2013-05-29 08:55:00,
2013-05-29 04:56:00,79.3,73.0,29.99,SE,135,0.0,0.0,81,0.00,,---,0.00,VWS V13.01,2013-05-29 08:56:00,
2013-05-29 05:00:00,79.3,73.0,29.99,South,180,0.0,0.0,81,0.00,,---,0.00,VWS V13.01,2013-05-29 09:00:00,
2013-05-29 05:01:00,79.3,73.0,29.99,ESE,112,0.0,0.0,81,0.00,,---,0.00,VWS V13.01,2013-05-29 09:01:00,
2013-05-29 05:05:00,79.3,73.0,29.99,SE,135,0.0,0.0,81,0.00,,---,0.00,VWS V13.01,2013-05-29 09:05:00,
2013-05-29 05:06:00,79.3,73.0,29.99,SE,135,0.0,0.0,81,0.00,,---,0.00,VWS V13.01,2013-05-29 09:06:00,
2013-05-29 05:10:00,79.1,73.1,29.99,SE,135,0.0,0.0,82,0.00,,---,0.00,VWS V13.01,2013-05-29 09:10:00,
2013-05-29 05:11:00,79.1,73.1,29.99,SSE,158,0.0,0.0,82,0.00,,---,0.00,VWS V13.01,2013-05-29 09:11:00,
2013-05-29 05:15:00,79.1,73.1,29.99,SE,135,0.0,0.0,82,0.00,,---,0.00,VWS V13.01,2013-05-29 09:15:00,
2013-05-29 05:16:00,79.1,73.1,29.99,SE,135,0.0,0.0,82,0.00,,---,0.00,VWS V13.01,2013-05-29 09:16:00,
2013-05-29 05:20:00,79.1,73.1,29.99,SE,135,0.0,0.0,82,0.00,,---,0.00,VWS V13.01,2013-05-29 09:20:00,
2013-05-29 05:21:00,79.1,73.1,29.99,SE,135,2.2,2.2,82,0.00,,---,0.00,VWS V13.01,2013-05-29 09:21:00,
2013-05-29 05:25:00,79.1,73.1,29.98,ESE,112,3.8,3.8,82,0.00,,---,0.00,VWS V13.01,2013-05-29 09:25:00,
2013-05-29 05:27:00,79.1,73.1,29.99,SE,135,0.0,0.0,82,0.00,,---,0.00,VWS V13.01,2013-05-29 09:27:00,
2013-05-29 05:30:00,79.1,73.1,29.99,ENE,68,0.0,0.0,82,0.00,,---,0.00,VWS V13.01,2013-05-29 09:30:00,
2013-05-29 05:32:00,79.1,73.1,29.99,South,180,0.0,0.0,82,0.00,,---,0.00,VWS V13.01,2013-05-29 09:32:00,
2013-05-29 05:35:00,79.1,73.1,29.99,SE,135,2.9,2.9,82,0.00,,---,0.00,VWS V13.01,2013-05-29 09:35:00,
2013-05-29 05:37:00,79.1,73.1,29.99,SE,135,0.0,0.0,82,0.00,,---,0.00,VWS V13.01,2013-05-29 09:37:00,
2013-05-29 05:40:00,78.9,72.9,29.99,East,90,0.0,0.0,82,0.00,,---,0.00,VWS V13.01,2013-05-29 09:40:00,
2013-05-29 05:42:00,78.9,72.9,29.99,SSE,158,2.4,2.4,82,0.00,,---,0.00,VWS V13.01,2013-05-29 09:42:00,
2013-05-29 05:45:00,78.9,72.9,29.99,SE,135,0.0,0.0,82,0.00,,---,0.00,VWS V13.01,2013-05-29 09:45:00,
2013-05-29 05:46:00,78.9,72.9,29.99,SE,135,1.5,1.5,82,0.00,,---,0.00,VWS V13.01,2013-05-29 09:46:00,
2013-05-29 05:47:00,78.9,72.9,29.99,SE,135,0.0,0.0,82,0.00,,---,0.00,VWS V13.01,2013-05-29 09:47:00,
2013-05-29 05:50:00,78.9,72.9,30.00,SE,135,1.3,1.3,82,0.00,,---,0.00,VWS V13.01,2013-05-29 09:50:00,
2013-05-29 05:51:00,78.9,72.9,29.99,SE,135,0.0,0.0,82,0.00,,---,0.00,VWS V13.01,2013-05-29 09:51:00,
2013-05-29 05:52:00,78.9,72.9,29.99,ENE,68,0.0,0.0,82,0.00,,---,0.00,VWS V13.01,2013-05-29 09:52:00,
2013-05-29 05:55:00,78.9,72.9,29.99,SSE,158,0.0,0.0,82,0.00,,---,0.00,VWS V13.01,2013-05-29 09:55:00,
2013-05-29 05:56:00,78.9,72.9,29.99,SSE,158,0.0,0.0,82,0.00,,---,0.00,VWS V13.01,2013-05-29 09:56:00,
2013-05-29 05:57:00,78.9,72.9,29.99,SE,135,2.9,2.9,82,0.00,,---,0.00,VWS V13.01,2013-05-29 09:57:00,
2013-05-29 06:00:00,78.9,72.9,29.99,SE,135,0.0,0.0,82,0.00,,---,0.00,VWS V13.01,2013-05-29 10:00:00,
2013-05-29 06:01:00,78.9,72.9,29.99,SE,135,0.0,0.0,82,0.00,,---,0.00,VWS V13.01,2013-05-29 10:01:00,
2013-05-29 06:02:00,78.9,72.9,29.99,SE,135,0.0,0.0,82,0.00,,---,0.00,VWS V13.01,2013-05-29 10:02:00,
2013-05-29 06:05:00,78.9,72.9,29.99,SE,135,0.0,0.0,82,0.00,,---,0.00,VWS V13.01,2013-05-29 10:05:00,
2013-05-29 06:06:00,78.9,72.9,29.99,SE,135,0.0,0.0,82,0.00,,---,0.00,VWS V13.01,2013-05-29 10:06:00,
2013-05-29 06:07:00,78.9,72.9,29.99,SE,135,0.0,0.0,82,0.00,,---,0.00,VWS V13.01,2013-05-29 10:07:00,
2013-05-29 06:10:00,78.9,72.9,29.99,SE,135,0.0,0.0,82,0.00,,---,0.00,VWS V13.01,2013-05-29 10:10:00,
2013-05-29 06:11:00,78.9,72.9,29.99,SE,135,0.0,0.0,82,0.00,,---,0.00,VWS V13.01,2013-05-29 10:11:00,
2013-05-29 06:12:00,78.9,72.9,29.99,East,90,0.0,0.0,82,0.00,,---,0.00,VWS V13.01,2013-05-29 10:12:00,
2013-05-29 06:16:00,78.9,72.9,29.99,SE,135,0.0,0.0,82,0.00,,---,0.00,VWS V13.01,2013-05-29 10:16:00,
2013-05-29 06:18:00,78.9,72.9,29.99,ESE,112,0.0,0.0,82,0.00,,---,0.00,VWS V13.01,2013-05-29 10:18:00,
2013-05-29 06:21:00,79.1,73.1,30.00,ENE,68,0.0,0.0,82,0.00,,---,0.00,VWS V13.01,2013-05-29 10:21:00,
2013-05-29 06:23:00,79.3,73.3,30.00,SSE,158,0.0,0.0,82,0.00,,---,0.00,VWS V13.01,2013-05-29 10:23:00,
2013-05-29 06:26:00,79.3,73.3,30.00,South,180,0.0,0.0,82,0.00,,---,0.00,VWS V13.01,2013-05-29 10:26:00,
2013-05-29 06:28:00,79.5,73.5,30.00,SE,135,0.0,0.0,82,0.00,,---,0.00,VWS V13.01,2013-05-29 10:28:00,
2013-05-29 06:31:00,79.5,73.5,30.00,ESE,112,6.0,6.0,82,0.00,,---,0.00,VWS V13.01,2013-05-29 10:31:00,
2013-05-29 06:33:00,79.5,73.5,30.00,SE,135,0.0,0.0,82,0.00,,---,0.00,VWS V13.01,2013-05-29 10:33:00,
2013-05-29 06:36:00,79.7,73.7,30.00,SE,135,5.8,5.8,82,0.00,,---,0.00,VWS V13.01,2013-05-29 10:36:00,
2013-05-29 06:38:00,79.7,73.7,30.00,SSE,158,0.0,0.0,82,0.00,,---,0.00,VWS V13.01,2013-05-29 10:38:00,
2013-05-29 06:41:00,79.8,73.8,30.00,ESE,112,2.2,2.2,82,0.00,,---,0.00,VWS V13.01,2013-05-29 10:41:00,
2013-05-29 06:43:00,79.8,73.8,30.00,SE,135,2.2,2.2,82,0.00,,---,0.00,VWS V13.01,2013-05-29 10:43:00,
2013-05-29 06:46:00,80.0,74.0,30.00,SSE,158,2.2,2.2,82,0.00,,---,0.00,VWS V13.01,2013-05-29 10:46:00,
2013-05-29 06:48:00,80.2,74.2,30.00,ENE,68,0.0,0.0,82,0.00,,---,0.00,VWS V13.01,2013-05-29 10:48:00,
2013-05-29 06:51:00,80.2,74.2,30.00,SE,135,0.0,0.0,82,0.00,,---,0.00,VWS V13.01,2013-05-29 10:51:00,
2013-05-29 06:53:00,80.2,74.2,30.00,South,180,1.7,1.7,82,0.00,,---,0.00,VWS V13.01,2013-05-29 10:53:00,
2013-05-29 06:56:00,80.4,74.4,30.00,SSE,158,7.6,7.6,82,0.00,,---,0.00,VWS V13.01,2013-05-29 10:56:00,
2013-05-29 06:57:00,80.4,74.4,30.00,SSW,202,3.3,3.3,82,0.00,,---,0.00,VWS V13.01,2013-05-29 10:57:00,
2013-05-29 06:58:00,80.4,74.4,30.00,SE,135,0.0,0.0,82,0.00,,---,0.00,VWS V13.01,2013-05-29 10:58:00,
2013-05-29 07:01:00,80.4,74.4,30.00,SSE,158,5.8,5.8,82,0.00,,---,0.00,VWS V13.01,2013-05-29 11:01:00,
2013-05-29 07:02:00,80.4,74.4,30.00,SSE,158,0.0,0.0,82,0.00,,---,0.00,VWS V13.01,2013-05-29 11:02:00,
2013-05-29 07:03:00,80.2,74.2,30.00,SE,135,0.0,0.0,82,0.00,,---,0.00,VWS V13.01,2013-05-29 11:03:00,
2013-05-29 07:06:00,80.2,73.8,30.00,SE,135,0.0,0.0,81,0.00,,---,0.00,VWS V13.01,2013-05-29 11:06:00,
2013-05-29 07:07:00,80.2,73.8,30.00,SSE,158,4.2,4.2,81,0.00,,---,0.00,VWS V13.01,2013-05-29 11:07:00,
2013-05-29 07:08:00,80.2,73.8,30.00,SE,135,0.0,0.0,81,0.00,,---,0.00,VWS V13.01,2013-05-29 11:08:00,
2013-05-29 07:11:00,80.2,73.8,30.00,ESE,112,0.0,0.0,81,0.00,,---,0.00,VWS V13.01,2013-05-29 11:11:00,
2013-05-29 07:12:00,80.2,73.8,30.00,SSE,158,3.8,3.8,81,0.00,,---,0.00,VWS V13.01,2013-05-29 11:12:00,
2013-05-29 07:13:00,80.2,73.8,30.00,SE,135,2.0,2.0,81,0.00,,---,0.00,VWS V13.01,2013-05-29 11:13:00,
2013-05-29 07:16:00,80.4,74.0,30.00,SSE,158,2.2,2.2,81,0.00,,---,0.00,VWS V13.01,2013-05-29 11:16:00,
2013-05-29 07:17:00,80.2,73.8,30.00,SSW,202,0.0,0.0,81,0.00,,---,0.00,VWS V13.01,2013-05-29 11:17:00,
2013-05-29 07:18:00,80.2,74.2,30.01,SE,135,1.7,1.7,82,0.00,,---,0.00,VWS V13.01,2013-05-29 11:18:00,
2013-05-29 07:21:00,80.4,74.4,30.00,SE,135,5.3,5.3,82,0.00,,---,0.00,VWS V13.01,2013-05-29 11:21:00,
2013-05-29 07:22:00,80.4,74.4,30.01,ENE,68,0.0,0.0,82,0.00,,---,0.00,VWS V13.01,2013-05-29 11:22:00,
2013-05-29 07:23:00,80.4,74.4,30.01,ESE,112,0.0,0.0,82,0.00,,---,0.00,VWS V13.01,2013-05-29 11:23:00,
2013-05-29 07:26:00,80.7,74.3,30.01,SE,135,5.8,5.8,81,0.00,,---,0.00,VWS V13.01,2013-05-29 11:26:00,
2013-05-29 07:27:00,80.7,74.3,30.01,NE,45,0.0,0.0,81,0.00,,---,0.00,VWS V13.01,2013-05-29 11:27:00,
2013-05-29 07:28:00,80.7,74.3,30.01,SE,135,5.1,5.1,81,0.00,,---,0.00,VWS V13.01,2013-05-29 11:28:00,
2013-05-29 07:31:00,81.1,74.3,30.01,SE,135,4.9,4.9,80,0.00,,---,0.00,VWS V13.01,2013-05-29 11:31:00,
2013-05-29 07:32:00,81.1,74.3,30.01,East,90,0.0,0.0,80,0.00,,---,0.00,VWS V13.01,2013-05-29 11:32:00,
2013-05-29 07:33:00,81.1,74.3,30.01,SE,135,0.0,0.0,80,0.00,,---,0.00,VWS V13.01,2013-05-29 11:33:00,
2013-05-29 07:36:00,81.3,74.5,30.01,East,90,2.0,2.0,80,0.00,,---,0.00,VWS V13.01,2013-05-29 11:36:00,
2013-05-29 07:37:00,81.3,74.5,30.01,SE,135,5.5,5.5,80,0.00,,---,0.00,VWS V13.01,2013-05-29 11:37:00,
2013-05-29 07:39:00,81.3,74.2,30.01,SE,135,0.0,0.0,79,0.00,,---,0.00,VWS V13.01,2013-05-29 11:39:00,
2013-05-29 07:41:00,81.5,74.4,30.01,East,90,0.0,0.0,79,0.00,,---,0.00,VWS V13.01,2013-05-29 11:41:00,
2013-05-29 07:42:00,81.5,74.4,30.01,ENE,68,0.0,0.0,79,0.00,,---,0.00,VWS V13.01,2013-05-29 11:42:00,
2013-05-29 07:44:00,81.6,74.5,30.01,SSE,158,2.2,2.2,79,0.00,,---,0.00,VWS V13.01,2013-05-29 11:44:00,
2013-05-29 07:46:00,81.6,74.5,30.01,ESE,112,3.5,3.5,79,0.00,,---,0.00,VWS V13.01,2013-05-29 11:46:00,
2013-05-29 07:47:00,81.6,74.5,30.01,ESE,112,5.3,5.3,79,0.00,,---,0.00,VWS V13.01,2013-05-29 11:47:00,
2013-05-29 07:49:00,82.0,74.8,30.01,ENE,68,11.8,11.8,79,0.00,,---,0.00,VWS V13.01,2013-05-29 11:49:00,
2013-05-29 07:51:00,82.0,74.5,30.00,East,90,6.9,6.9,78,0.00,,---,0.00,VWS V13.01,2013-05-29 11:51:00,
2013-05-29 07:52:00,82.0,74.5,30.00,East,90,8.9,8.9,78,0.00,,---,0.00,VWS V13.01,2013-05-29 11:52:00,
2013-05-29 07:54:00,82.2,74.7,30.00,East,90,0.0,0.0,78,0.00,,---,0.00,VWS V13.01,2013-05-29 11:54:00,
2013-05-29 07:57:00,82.2,74.7,30.00,NE,45,4.6,4.6,78,0.00,,---,0.00,VWS V13.01,2013-05-29 11:57:00,
2013-05-29 07:59:00,82.2,74.3,30.00,SE,135,1.5,1.5,77,0.00,,---,0.00,VWS V13.01,2013-05-29 11:59:00,
2013-05-29 08:02:00,82.5,74.6,30.00,NE,45,0.0,0.0,77,0.00,,---,0.00,VWS V13.01,2013-05-29 12:02:00,
2013-05-29 08:03:00,82.5,74.6,30.01,SE,135,5.1,5.1,77,0.00,,---,0.00,VWS V13.01,2013-05-29 12:03:00,
2013-05-29 08:04:00,82.7,74.8,30.00,ENE,68,0.0,0.0,77,0.00,,---,0.00,VWS V13.01,2013-05-29 12:04:00,
2013-05-29 08:07:00,82.7,74.8,30.00,NE,45,0.0,0.0,77,0.00,,---,0.00,VWS V13.01,2013-05-29 12:07:00,
2013-05-29 08:08:00,82.7,74.8,30.00,SSW,202,0.0,0.0,77,0.00,,---,0.00,VWS V13.01,2013-05-29 12:08:00,
2013-05-29 08:09:00,82.9,74.9,30.00,East,90,0.0,0.0,77,0.00,,---,0.00,VWS V13.01,2013-05-29 12:09:00,
2013-05-29 08:12:00,82.9,74.6,30.00,East,90,0.0,0.0,76,0.00,,---,0.00,VWS V13.01,2013-05-29 12:12:00,
2013-05-29 08:13:00,83.1,74.8,30.00,ESE,112,0.0,0.0,76,0.00,,---,0.00,VWS V13.01,2013-05-29 12:13:00,
2013-05-29 08:14:00,83.1,74.8,30.00,ESE,112,2.4,2.4,76,0.00,,---,0.00,VWS V13.01,2013-05-29 12:14:00,
2013-05-29 08:17:00,83.1,74.8,30.00,SE,135,0.8,0.8,76,0.00,,---,0.00,VWS V13.01,2013-05-29 12:17:00,
2013-05-29 08:18:00,83.1,74.4,30.00,SE,135,4.0,4.0,75,0.00,,---,0.00,VWS V13.01,2013-05-29 12:18:00,
2013-05-29 08:19:00,83.1,74.8,30.00,ENE,68,3.8,3.8,76,0.00,,---,0.00,VWS V13.01,2013-05-29 12:19:00,
2013-05-29 08:22:00,83.3,74.6,30.00,SE,135,12.7,12.7,75,0.00,,---,0.00,VWS V13.01,2013-05-29 12:22:00,
2013-05-29 08:23:00,83.3,74.2,30.00,SSE,158,6.0,6.0,74,0.00,,---,0.00,VWS V13.01,2013-05-29 12:23:00,
2013-05-29 08:24:00,83.3,74.2,30.00,ESE,112,0.0,0.0,74,0.00,,---,0.00,VWS V13.01,2013-05-29 12:24:00,
2013-05-29 08:27:00,83.4,74.2,30.00,ESE,112,0.0,0.0,74,0.00,,---,0.00,VWS V13.01,2013-05-29 12:27:00,
2013-05-29 08:28:00,83.3,74.2,30.00,ESE,112,2.9,2.9,74,0.00,,---,0.00,VWS V13.01,2013-05-29 12:28:00,
2013-05-29 08:29:00,83.4,73.8,30.00,East,90,0.0,0.0,73,0.00,,---,0.00,VWS V13.01,2013-05-29 12:29:00,
2013-05-29 08:32:00,83.4,73.8,30.00,ESE,112,1.5,1.5,73,0.00,,---,0.00,VWS V13.01,2013-05-29 12:32:00,
2013-05-29 08:33:00,83.4,73.4,30.00,ESE,112,0.0,0.0,72,0.00,,---,0.00,VWS V13.01,2013-05-29 12:33:00,
2013-05-29 08:34:00,83.4,73.8,30.00,East,90,1.1,1.1,73,0.00,,---,0.00,VWS V13.01,2013-05-29 12:34:00,
2013-05-29 08:37:00,83.6,74.0,30.00,ENE,68,6.9,6.9,73,0.00,,---,0.00,VWS V13.01,2013-05-29 12:37:00,
2013-05-29 08:38:00,83.8,74.2,30.00,ESE,112,0.0,0.0,73,0.00,,---,0.00,VWS V13.01,2013-05-29 12:38:00,
2013-05-29 08:39:00,83.8,74.2,30.00,East,90,10.0,10.0,73,0.00,,---,0.00,VWS V13.01,2013-05-29 12:39:00,
2013-05-29 08:42:00,83.8,74.2,30.00,SSE,158,2.0,2.0,73,0.00,,---,0.00,VWS V13.01,2013-05-29 12:42:00,
2013-05-29 08:43:00,83.8,74.2,30.00,East,90,4.6,4.6,73,0.00,,---,0.00,VWS V13.01,2013-05-29 12:43:00,
2013-05-29 08:44:00,84.0,74.4,30.00,East,90,2.0,2.0,73,0.00,,---,0.00,VWS V13.01,2013-05-29 12:44:00,
2013-05-29 08:47:00,84.0,74.4,30.00,ESE,112,0.0,0.0,73,0.00,,---,0.00,VWS V13.01,2013-05-29 12:47:00,
2013-05-29 08:48:00,84.0,74.4,30.01,SE,135,2.2,2.2,73,0.00,,---,0.00,VWS V13.01,2013-05-29 12:48:00,
2013-05-29 08:49:00,84.0,74.4,30.00,East,90,8.0,8.0,73,0.00,,---,0.00,VWS V13.01,2013-05-29 12:49:00,
2013-05-29 08:50:00,84.0,74.4,30.00,ESE,112,2.0,2.0,73,0.00,,---,0.00,VWS V13.01,2013-05-29 12:50:00,
2013-05-29 08:52:00,84.0,74.4,30.00,ENE,68,0.0,0.0,73,0.00,,---,0.00,VWS V13.01,2013-05-29 12:52:00,
2013-05-29 08:53:00,84.0,74.4,30.00,NE,45,0.0,0.0,73,0.00,,---,0.00,VWS V13.01,2013-05-29 12:53:00,
2013-05-29 08:54:00,84.0,74.4,30.00,East,90,0.0,0.0,73,0.00,,---,0.00,VWS V13.01,2013-05-29 12:54:00,
2013-05-29 08:55:00,84.3,74.7,30.00,East,90,4.0,4.0,73,0.00,,---,0.00,VWS V13.01,2013-05-29 12:55:00,
2013-05-29 08:57:00,84.3,74.7,30.00,East,90,4.2,4.2,73,0.00,,---,0.00,VWS V13.01,2013-05-29 12:57:00,
2013-05-29 08:58:00,84.3,74.3,30.01,South,180,2.0,2.0,72,0.00,,---,0.00,VWS V13.01,2013-05-29 12:58:00,
2013-05-29 08:59:00,84.3,74.3,30.01,East,90,0.6,0.6,72,0.00,,---,0.00,VWS V13.01,2013-05-29 12:59:00,
2013-05-29 09:00:00,84.3,74.3,30.01,ENE,68,9.8,9.8,72,0.00,,---,0.00,VWS V13.01,2013-05-29 13:00:00,
2013-05-29 09:02:00,84.3,74.3,30.01,ENE,68,0.0,0.0,72,0.00,,---,0.00,VWS V13.01,2013-05-29 13:02:00,
2013-05-29 09:03:00,84.5,74.5,30.01,ENE,68,14.7,14.7,72,0.00,,---,0.00,VWS V13.01,2013-05-29 13:03:00,
2013-05-29 09:04:00,84.5,74.5,30.01,ENE,68,14.7,14.7,72,0.00,,---,0.00,VWS V13.01,2013-05-29 13:04:00,
2013-05-29 09:05:00,84.5,74.9,30.01,ENE,68,6.2,6.2,73,0.00,,---,0.00,VWS V13.01,2013-05-29 13:05:00,
2013-05-29 09:07:00,84.5,74.9,30.01,ENE,68,7.6,7.6,73,0.00,,---,0.00,VWS V13.01,2013-05-29 13:07:00,
2013-05-29 09:08:00,84.7,74.7,30.01,ENE,68,0.0,0.0,72,0.00,,---,0.00,VWS V13.01,2013-05-29 13:08:00,
2013-05-29 09:09:00,84.5,74.5,30.01,East,90,0.0,0.0,72,0.00,,---,0.00,VWS V13.01,2013-05-29 13:09:00,
2013-05-29 09:10:00,84.7,74.7,30.01,ENE,68,5.3,5.3,72,0.00,,---,0.00,VWS V13.01,2013-05-29 13:10:00,
2013-05-29 09:12:00,84.7,74.7,30.01,SSE,158,3.3,3.3,72,0.00,,---,0.00,VWS V13.01,2013-05-29 13:12:00,
2013-05-29 09:13:00,84.7,74.7,30.01,SSE,158,3.3,3.3,72,0.00,,---,0.00,VWS V13.01,2013-05-29 13:13:00,
2013-05-29 09:14:00,84.7,74.7,30.01,East,90,10.5,10.5,72,0.00,,---,0.00,VWS V13.01,2013-05-29 13:14:00,
2013-05-29 09:15:00,84.7,74.7,30.01,SE,135,0.0,0.0,72,0.00,,---,0.00,VWS V13.01,2013-05-29 13:15:00,
2013-05-29 09:18:00,84.7,74.7,30.00,SSE,158,1.5,1.5,72,0.00,,---,0.00,VWS V13.01,2013-05-29 13:18:00,
2013-05-29 09:19:00,84.7,74.7,30.00,East,90,2.0,2.0,72,0.00,,---,0.00,VWS V13.01,2013-05-29 13:19:00,
2013-05-29 09:20:00,84.7,74.7,30.00,ENE,68,8.2,8.2,72,0.00,,---,0.00,VWS V13.01,2013-05-29 13:20:00,
2013-05-29 09:23:00,84.7,74.7,30.01,SE,135,0.0,0.0,72,0.00,,---,0.00,VWS V13.01,2013-05-29 13:23:00,
2013-05-29 09:24:00,84.7,74.7,30.01,ESE,112,3.8,3.8,72,0.00,,---,0.00,VWS V13.01,2013-05-29 13:24:00,
2013-05-29 09:25:00,84.9,74.9,30.01,SE,135,2.0,2.0,72,0.00,,---,0.00,VWS V13.01,2013-05-29 13:25:00,
2013-05-29 09:28:00,84.9,74.4,30.00,East,90,2.2,2.2,71,0.00,,---,0.00,VWS V13.01,2013-05-29 13:28:00,
2013-05-29 09:29:00,84.7,74.7,30.00,SE,135,0.0,0.0,72,0.00,,---,0.00,VWS V13.01,2013-05-29 13:29:00,
2013-05-29 09:30:00,84.9,74.4,30.00,East,90,6.4,6.4,71,0.00,,---,0.00,VWS V13.01,2013-05-29 13:30:00,
2013-05-29 09:33:00,84.9,74.4,30.00,ESE,112,6.2,6.2,71,0.00,,---,0.00,VWS V13.01,2013-05-29 13:33:00,
2013-05-29 09:34:00,85.1,74.6,30.00,NE,45,0.0,0.0,71,0.00,,---,0.00,VWS V13.01,2013-05-29 13:34:00,
2013-05-29 09:35:00,85.1,74.6,30.01,NE,45,0.0,6.2,71,0.00,,---,0.00,VWS V13.01,2013-05-29 13:35:00,
2013-05-29 09:38:00,85.2,74.7,30.01,SSE,158,0.0,0.0,71,0.00,,---,0.00,VWS V13.01,2013-05-29 13:38:00,
2013-05-29 09:39:00,85.1,74.6,30.01,ESE,112,2.4,2.4,71,0.00,,---,0.00,VWS V13.01,2013-05-29 13:39:00,
2013-05-29 09:40:00,85.2,74.7,30.00,East,90,0.0,0.0,71,0.00,,---,0.00,VWS V13.01,2013-05-29 13:40:00,
2013-05-29 09:43:00,85.2,74.7,30.00,East,90,5.1,5.1,71,0.00,,---,0.00,VWS V13.01,2013-05-29 13:43:00,
2013-05-29 09:44:00,85.4,74.9,30.00,East,90,4.6,4.6,71,0.00,,---,0.00,VWS V13.01,2013-05-29 13:44:00,
2013-05-29 09:45:00,85.4,74.9,30.01,South,180,0.0,0.0,71,0.00,,---,0.00,VWS V13.01,2013-05-29 13:45:00,
2013-05-29 09:48:00,85.6,75.1,30.00,ENE,68,8.2,8.2,71,0.00,,---,0.00,VWS V13.01,2013-05-29 13:48:00,
2013-05-29 09:49:00,85.6,75.1,30.00,East,90,5.1,5.1,71,0.00,,---,0.00,VWS V13.01,2013-05-29 13:49:00,
2013-05-29 09:50:00,85.8,75.3,30.00,SSE,158,1.7,1.7,71,0.00,,---,0.00,VWS V13.01,2013-05-29 13:50:00,
2013-05-29 09:53:00,85.6,75.1,30.00,SE,135,6.9,6.9,71,0.00,,---,0.00,VWS V13.01,2013-05-29 13:53:00,
2013-05-29 09:54:00,85.8,75.3,30.00,ENE,68,2.4,2.4,71,0.00,,---,0.00,VWS V13.01,2013-05-29 13:54:00,
2013-05-29 09:55:00,85.8,74.9,30.01,East,90,0.0,0.0,70,0.00,,---,0.00,VWS V13.01,2013-05-29 13:55:00,
2013-05-29 09:58:00,85.8,74.9,30.00,NE,45,0.0,0.0,70,0.00,,---,0.00,VWS V13.01,2013-05-29 13:58:00,
2013-05-29 09:59:00,86.0,75.1,30.00,ESE,112,4.6,4.6,70,0.00,,---,0.00,VWS V13.01,2013-05-29 13:59:00,
2013-05-29 10:00:00,86.0,75.1,30.00,SE,135,2.0,2.0,70,0.00,,---,0.00,VWS V13.01,2013-05-29 14:00:00,
2013-05-29 10:03:00,86.1,74.8,30.00,ENE,68,7.8,7.8,69,0.00,,---,0.00,VWS V13.01,2013-05-29 14:03:00,
2013-05-29 10:04:00,86.1,74.8,30.00,ENE,68,1.3,1.3,69,0.00,,---,0.00,VWS V13.01,2013-05-29 14:04:00,
2013-05-29 10:05:00,86.1,74.8,30.00,NNE,22,2.2,2.2,69,0.00,,---,0.00,VWS V13.01,2013-05-29 14:05:00,
2013-05-29 10:08:00,86.1,74.8,30.01,ESE,112,7.6,7.6,69,0.00,,---,0.00,VWS V13.01,2013-05-29 14:08:00,
2013-05-29 10:09:00,86.1,74.8,30.01,East,90,13.4,13.4,69,0.00,,---,0.00,VWS V13.01,2013-05-29 14:09:00,
2013-05-29 10:10:00,86.1,74.8,30.01,North,0,0.0,0.0,69,0.00,,---,0.00,VWS V13.01,2013-05-29 14:10:00,
2013-05-29 10:13:00,86.1,74.8,30.00,ESE,112,9.8,9.8,69,0.00,,---,0.00,VWS V13.01,2013-05-29 14:13:00,
2013-05-29 10:14:00,86.1,74.8,30.00,ENE,68,6.0,6.0,69,0.00,,---,0.00,VWS V13.01,2013-05-29 14:14:00,
2013-05-29 10:15:00,86.1,74.8,30.00,ENE,68,8.5,8.5,69,0.00,,---,0.00,VWS V13.01,2013-05-29 14:15:00,
2013-05-29 10:18:00,86.3,74.9,30.01,ESE,112,4.2,4.2,69,0.00,,---,0.00,VWS V13.01,2013-05-29 14:18:00,
2013-05-29 10:19:00,86.3,74.9,30.01,ESE,112,4.2,4.2,69,0.00,,---,0.00,VWS V13.01,2013-05-29 14:19:00,
2013-05-29 10:20:00,86.3,74.9,30.01,West,270,0.0,0.0,69,0.00,,---,0.00,VWS V13.01,2013-05-29 14:20:00,
2013-05-29 10:21:00,86.1,74.8,30.01,SSE,158,4.0,4.0,69,0.00,,---,0.00,VWS V13.01,2013-05-29 14:21:00,
2013-05-29 10:23:00,86.5,75.1,30.00,East,90,5.5,5.5,69,0.00,,---,0.00,VWS V13.01,2013-05-29 14:23:00,
2013-05-29 10:24:00,86.5,75.1,30.00,East,90,5.5,5.5,69,0.00,,---,0.00,VWS V13.01,2013-05-29 14:24:00,
2013-05-29 10:25:00,86.5,75.1,30.01,NNE,22,0.0,0.0,69,0.00,,---,0.00,VWS V13.01,2013-05-29 14:25:00,
2013-05-29 10:26:00,86.5,75.1,30.01,SSW,202,3.1,3.1,69,0.00,,---,0.00,VWS V13.01,2013-05-29 14:26:00,
2013-05-29 10:28:00,86.7,74.9,30.01,East,90,4.6,4.6,68,0.00,,---,0.00,VWS V13.01,2013-05-29 14:28:00,
2013-05-29 10:29:00,86.7,74.9,30.01,East,90,4.6,4.6,68,0.00,,---,0.00,VWS V13.01,2013-05-29 14:29:00,
2013-05-29 10:30:00,86.7,74.9,30.01,NNE,22,0.0,0.0,68,0.00,,---,0.00,VWS V13.01,2013-05-29 14:30:00,
2013-05-29 10:31:00,86.7,74.9,30.01,NE,45,2.0,2.0,68,0.00,,---,0.00,VWS V13.01,2013-05-29 14:31:00,
2013-05-29 10:33:00,86.9,75.1,30.01,SE,135,10.2,10.2,68,0.00,,---,0.00,VWS V13.01,2013-05-29 14:33:00,
2013-05-29 10:34:00,86.9,75.1,30.01,SE,135,10.2,10.2,68,0.00,,---,0.00,VWS V13.01,2013-05-29 14:34:00,
2013-05-29 10:35:00,86.9,75.1,30.01,SE,135,11.8,11.8,68,0.00,,---,0.00,VWS V13.01,2013-05-29 14:35:00,
2013-05-29 10:36:00,86.9,74.6,30.00,East,90,5.3,5.3,67,0.00,,---,0.00,VWS V13.01,2013-05-29 14:36:00,
2013-05-29 10:39:00,87.0,74.7,30.01,NE,45,11.4,11.4,67,0.00,,---,0.00,VWS V13.01,2013-05-29 14:39:00,
2013-05-29 10:40:00,87.0,74.7,30.01,ENE,68,7.8,7.8,67,0.00,,---,0.00,VWS V13.01,2013-05-29 14:40:00,
2013-05-29 10:41:00,87.0,74.7,30.01,East,90,14.0,14.0,67,0.00,,---,0.00,VWS V13.01,2013-05-29 14:41:00,
2013-05-29 10:44:00,87.0,74.7,30.01,NE,45,8.0,8.0,67,0.00,,---,0.00,VWS V13.01,2013-05-29 14:44:00,
2013-05-29 10:45:00,87.2,74.9,30.01,ESE,112,4.6,4.6,67,0.00,,---,0.00,VWS V13.01,2013-05-29 14:45:00,
2013-05-29 10:46:00,87.2,74.9,30.01,SE,135,3.8,3.8,67,0.00,,---,0.00,VWS V13.01,2013-05-29 14:46:00,
2013-05-29 10:49:00,87.4,75.1,30.01,ENE,68,6.0,6.0,67,0.00,,---,0.00,VWS V13.01,2013-05-29 14:49:00,
2013-05-29 10:50:00,87.4,75.1,30.01,ENE,68,11.6,11.6,67,0.00,,---,0.00,VWS V13.01,2013-05-29 14:50:00,
2013-05-29 10:51:00,87.4,75.1,30.01,ENE,68,4.4,4.4,67,0.00,,---,0.00,VWS V13.01,2013-05-29 14:51:00,
2013-05-29 10:54:00,87.4,75.1,30.01,SE,135,6.2,6.2,67,0.00,,---,0.00,VWS V13.01,2013-05-29 14:54:00,
2013-05-29 10:55:00,87.4,75.1,30.01,ESE,112,3.8,3.8,67,0.00,,---,0.00,VWS V13.01,2013-05-29 14:55:00,
2013-05-29 10:56:00,87.4,75.1,30.01,ESE,112,10.0,10.0,67,0.00,,---,0.00,VWS V13.01,2013-05-29 14:56:00,
2013-05-29 10:59:00,87.6,75.7,30.01,East,90,8.5,8.5,68,0.00,,---,0.00,VWS V13.01,2013-05-29 14:59:00,
2013-05-29 11:00:00,87.6,75.7,30.01,ENE,68,12.9,12.9,68,0.00,,---,0.00,VWS V13.01,2013-05-29 15:00:00,
2013-05-29 11:01:00,87.6,75.7,30.01,NE,45,6.7,6.7,68,0.00,,---,0.00,VWS V13.01,2013-05-29 15:01:00,
2013-05-29 11:04:00,87.6,75.7,30.01,ENE,68,9.3,9.3,68,0.00,,---,0.00,VWS V13.01,2013-05-29 15:04:00,
2013-05-29 11:05:00,87.4,76.0,30.00,ENE,68,13.4,13.4,69,0.00,,---,0.00,VWS V13.01,2013-05-29 15:05:00,
2013-05-29 11:06:00,87.6,76.2,30.00,NE,45,5.8,5.8,69,0.00,,---,0.00,VWS V13.01,2013-05-29 15:06:00,
2013-05-29 11:09:00,87.4,76.0,30.01,ENE,68,8.2,8.2,69,0.00,,---,0.00,VWS V13.01,2013-05-29 15:09:00,
2013-05-29 11:10:00,87.6,76.2,30.01,ENE,68,17.0,17.0,69,0.00,,---,0.00,VWS V13.01,2013-05-29 15:10:00,
2013-05-29 11:11:00,87.4,76.0,30.01,NE,45,12.9,12.9,69,0.00,,---,0.00,VWS V13.01,2013-05-29 15:11:00,
2013-05-29 11:14:00,87.6,76.2,30.01,NE,45,10.9,10.9,69,0.00,,---,0.00,VWS V13.01,2013-05-29 15:14:00,
2013-05-29 11:15:00,87.6,76.2,30.00,ENE,68,7.6,7.6,69,0.00,,---,0.00,VWS V13.01,2013-05-29 15:15:00,
2013-05-29 11:16:00,87.6,76.2,30.00,East,90,12.0,12.0,69,0.00,,---,0.00,VWS V13.01,2013-05-29 15:16:00,
2013-05-29 11:20:00,87.6,75.7,30.00,NE,45,3.5,3.5,68,0.00,,---,0.00,VWS V13.01,2013-05-29 15:20:00,
2013-05-29 11:21:00,87.6,75.7,30.01,NE,45,2.0,2.0,68,0.00,,---,0.00,VWS V13.01,2013-05-29 15:21:00,
2013-05-29 11:25:00,87.8,75.9,30.00,NE,45,3.8,3.8,68,0.00,,---,0.00,VWS V13.01,2013-05-29 15:25:00,
2013-05-29 11:26:00,87.8,75.9,30.00,ENE,68,15.6,15.6,68,0.00,,---,0.00,VWS V13.01,2013-05-29 15:26:00,
2013-05-29 11:27:00,87.8,75.9,30.00,ENE,68,10.0,10.0,68,0.00,,---,0.00,VWS V13.01,2013-05-29 15:27:00,
2013-05-29 11:30:00,87.8,75.9,30.01,ENE,68,13.1,13.1,68,0.00,,---,0.00,VWS V13.01,2013-05-29 15:30:00,
2013-05-29 11:31:00,87.6,75.7,30.01,ENE,68,10.0,10.0,68,0.00,,---,0.00,VWS V13.01,2013-05-29 15:31:00,
2013-05-29 11:32:00,87.6,75.7,30.01,ESE,112,11.6,11.6,68,0.00,,---,0.00,VWS V13.01,2013-05-29 15:32:00,
2013-05-29 11:35:00,87.6,76.2,30.00,East,90,14.5,14.5,69,0.00,,---,0.00,VWS V13.01,2013-05-29 15:35:00,
2013-05-29 11:36:00,87.4,76.0,30.00,East,90,17.2,17.2,69,0.00,,---,0.00,VWS V13.01,2013-05-29 15:36:00,
2013-05-29 11:37:00,87.4,76.0,30.00,NE,45,12.5,12.5,69,0.00,,---,0.00,VWS V13.01,2013-05-29 15:37:00,
2013-05-29 11:40:00,87.4,76.0,30.00,ENE,68,12.0,12.0,69,0.00,,---,0.00,VWS V13.01,2013-05-29 15:40:00,
2013-05-29 11:41:00,87.4,76.0,30.00,ENE,68,14.0,14.0,69,0.00,,---,0.00,VWS V13.01,2013-05-29 15:41:00,
2013-05-29 11:42:00,87.2,75.8,30.00,East,90,10.0,10.0,69,0.00,,---,0.00,VWS V13.01,2013-05-29 15:42:00,
2013-05-29 11:45:00,87.4,76.0,30.00,ENE,68,8.2,8.2,69,0.00,,---,0.00,VWS V13.01,2013-05-29 15:45:00,
2013-05-29 11:46:00,87.6,76.2,30.00,East,90,9.6,9.6,69,0.00,,---,0.00,VWS V13.01,2013-05-29 15:46:00,
2013-05-29 11:47:00,87.6,76.2,30.00,NE,45,13.4,13.4,69,0.00,,---,0.00,VWS V13.01,2013-05-29 15:47:00,
2013-05-29 11:50:00,87.6,76.2,30.00,ENE,68,10.9,10.9,69,0.00,,---,0.00,VWS V13.01,2013-05-29 15:50:00,
2013-05-29 11:52:00,87.6,76.2,30.01,ENE,68,8.7,8.7,69,0.00,,---,0.00,VWS V13.01,2013-05-29 15:52:00,
2013-05-29 11:55:00,87.6,76.2,30.00,ENE,68,11.8,11.8,69,0.00,,---,0.00,VWS V13.01,2013-05-29 15:55:00,
2013-05-29 11:57:00,87.4,76.0,30.00,ESE,112,5.1,5.1,69,0.00,,---,0.00,VWS V13.01,2013-05-29 15:57:00,
2013-05-29 12:00:00,87.4,76.0,30.00,East,90,4.4,4.4,69,0.00,,---,0.00,VWS V13.01,2013-05-29 16:00:00,
2013-05-29 12:02:00,87.4,76.0,30.00,SSE,158,1.5,1.5,69,0.00,,---,0.00,VWS V13.01,2013-05-29 16:02:00,
2013-05-29 12:05:00,87.4,76.0,30.00,ENE,68,4.9,4.9,69,0.00,,---,0.00,VWS V13.01,2013-05-29 16:05:00,
2013-05-29 12:07:00,87.4,76.0,30.00,ENE,68,7.6,7.6,69,0.00,,---,0.00,VWS V13.01,2013-05-29 16:07:00,
2013-05-29 12:10:00,87.4,76.4,30.00,ENE,68,5.8,5.8,70,0.00,,---,0.00,VWS V13.01,2013-05-29 16:10:00,
2013-05-29 12:11:00,87.4,76.4,30.00,ENE,68,20.8,20.8,70,0.00,,---,0.00,VWS V13.01,2013-05-29 16:11:00,
2013-05-29 12:12:00,87.4,76.4,30.00,ENE,68,10.5,10.5,70,0.00,,---,0.00,VWS V13.01,2013-05-29 16:12:00,
2013-05-29 12:15:00,87.6,76.6,30.00,ESE,112,12.0,12.0,70,0.00,,---,0.00,VWS V13.01,2013-05-29 16:15:00,
2013-05-29 12:16:00,87.6,76.6,30.00,ENE,68,11.6,11.6,70,0.00,,---,0.00,VWS V13.01,2013-05-29 16:16:00,
2013-05-29 12:17:00,87.6,76.6,30.00,North,0,9.6,9.6,70,0.00,,---,0.00,VWS V13.01,2013-05-29 16:17:00,
2013-05-29 12:20:00,87.6,76.6,30.00,NE,45,10.2,10.2,70,0.00,,---,0.00,VWS V13.01,2013-05-29 16:20:00,
2013-05-29 12:21:00,87.6,76.6,30.00,ESE,112,7.1,7.1,70,0.00,,---,0.00,VWS V13.01,2013-05-29 16:21:00,
2013-05-29 12:22:00,87.6,76.2,30.00,ENE,68,5.8,5.8,69,0.00,,---,0.00,VWS V13.01,2013-05-29 16:22:00,
2013-05-29 12:23:00,87.6,76.2,30.00,ENE,68,16.3,16.3,69,0.00,,---,0.00,VWS V13.01,2013-05-29 16:23:00,
2013-05-29 12:25:00,87.6,76.2,29.99,SE,135,13.1,13.1,69,0.00,,---,0.00,VWS V13.01,2013-05-29 16:25:00,
2013-05-29 12:26:00,87.6,76.2,30.00,East,90,7.8,7.8,69,0.00,,---,0.00,VWS V13.01,2013-05-29 16:26:00,
2013-05-29 12:27:00,87.6,76.2,30.00,ESE,112,10.5,10.5,69,0.00,,---,0.00,VWS V13.01,2013-05-29 16:27:00,
2013-05-29 12:28:00,87.6,76.2,29.99,ESE,112,7.6,7.6,69,0.00,,---,0.00,VWS V13.01,2013-05-29 16:28:00,
2013-05-29 12:30:00,87.6,76.2,29.99,NE,45,16.3,16.3,69,0.00,,---,0.00,VWS V13.01,2013-05-29 16:30:00,
2013-05-29 12:31:00,87.4,76.0,29.99,NE,45,7.1,7.1,69,0.00,,---,0.00,VWS V13.01,2013-05-29 16:31:00,
2013-05-29 12:32:00,87.4,76.4,30.00,ESE,112,8.2,8.2,70,0.00,,---,0.00,VWS V13.01,2013-05-29 16:32:00,
2013-05-29 12:33:00,87.4,76.4,30.00,East,90,8.9,8.9,70,0.00,,---,0.00,VWS V13.01,2013-05-29 16:33:00,
2013-05-29 12:36:00,87.6,76.2,29.99,ESE,112,13.1,13.1,69,0.00,,---,0.00,VWS V13.01,2013-05-29 16:36:00,
2013-05-29 12:37:00,87.6,76.2,29.99,ENE,68,10.2,10.2,69,0.00,,---,0.00,VWS V13.01,2013-05-29 16:37:00,
2013-05-29 12:38:00,87.6,76.2,29.99,ESE,112,9.3,9.3,69,0.00,,---,0.00,VWS V13.01,2013-05-29 16:38:00,
2013-05-29 12:41:00,87.6,76.6,29.99,East,90,3.1,3.1,70,0.00,,---,0.00,VWS V13.01,2013-05-29 16:41:00,
2013-05-29 12:42:00,87.6,76.6,29.99,ENE,68,9.6,9.6,70,0.00,,---,0.00,VWS V13.01,2013-05-29 16:42:00,
2013-05-29 12:43:00,87.6,76.6,29.99,East,90,15.2,15.2,70,0.00,,---,0.00,VWS V13.01,2013-05-29 16:43:00,
2013-05-29 12:46:00,87.6,76.6,29.99,East,90,8.5,8.5,70,0.00,,---,0.00,VWS V13.01,2013-05-29 16:46:00,
2013-05-29 12:47:00,87.8,76.8,29.99,SE,135,2.0,2.0,70,0.00,,---,0.00,VWS V13.01,2013-05-29 16:47:00,
2013-05-29 12:49:00,87.9,76.9,29.99,SSE,158,4.0,4.0,70,0.00,,---,0.00,VWS V13.01,2013-05-29 16:49:00,
2013-05-29 12:51:00,88.1,76.7,29.98,ESE,112,11.8,11.8,69,0.00,,---,0.00,VWS V13.01,2013-05-29 16:51:00,
2013-05-29 12:52:00,88.1,76.7,29.99,SE,135,9.8,9.8,69,0.00,,---,0.00,VWS V13.01,2013-05-29 16:52:00,
2013-05-29 12:54:00,88.1,76.7,29.99,ENE,68,8.2,8.2,69,0.00,,---,0.00,VWS V13.01,2013-05-29 16:54:00,
2013-05-29 12:56:00,88.1,76.7,29.99,ENE,68,12.7,12.7,69,0.00,,---,0.00,VWS V13.01,2013-05-29 16:56:00,
2013-05-29 12:57:00,88.1,76.7,29.99,ENE,68,11.6,11.6,69,0.00,,---,0.00,VWS V13.01,2013-05-29 16:57:00,
2013-05-29 12:59:00,88.1,76.7,29.99,NNE,22,6.0,6.0,69,0.00,,---,0.00,VWS V13.01,2013-05-29 16:59:00,
2013-05-29 13:01:00,88.3,76.8,29.99,NE,45,7.6,7.6,69,0.00,,---,0.00,VWS V13.01,2013-05-29 17:01:00,
2013-05-29 13:02:00,88.3,76.8,29.99,ENE,68,11.4,11.4,69,0.00,,---,0.00,VWS V13.01,2013-05-29 17:02:00,
2013-05-29 13:04:00,88.3,76.4,29.99,ENE,68,5.3,5.3,68,0.00,,---,0.00,VWS V13.01,2013-05-29 17:04:00,
2013-05-29 13:06:00,88.3,76.8,29.99,NE,45,3.1,3.1,69,0.00,,---,0.00,VWS V13.01,2013-05-29 17:06:00,
2013-05-29 13:07:00,88.5,77.5,29.99,ENE,68,8.0,8.0,70,0.00,,---,0.00,VWS V13.01,2013-05-29 17:07:00,
2013-05-29 13:09:00,88.3,76.8,29.99,ESE,112,8.5,8.5,69,0.00,,---,0.00,VWS V13.01,2013-05-29 17:09:00,
2013-05-29 13:11:00,88.3,76.4,29.99,ESE,112,11.8,11.8,68,0.00,,---,0.00,VWS V13.01,2013-05-29 17:11:00,
2013-05-29 13:13:00,88.3,76.4,29.99,NE,45,7.8,7.8,68,0.00,,---,0.00,VWS V13.01,2013-05-29 17:13:00,
2013-05-29 13:14:00,88.3,76.4,29.99,East,90,7.6,7.6,68,0.00,,---,0.00,VWS V13.01,2013-05-29 17:14:00,
2013-05-29 13:16:00,88.3,76.4,29.99,East,90,12.9,12.9,68,0.00,,---,0.00,VWS V13.01,2013-05-29 17:16:00,
2013-05-29 13:18:00,88.3,76.4,29.99,ENE,68,18.1,18.1,68,0.00,,---,0.00,VWS V13.01,2013-05-29 17:18:00,
2013-05-29 13:19:00,88.5,76.6,29.99,ENE,68,16.5,16.5,68,0.00,,---,0.00,VWS V13.01,2013-05-29 17:19:00,
2013-05-29 13:21:00,88.5,76.6,29.99,ENE,68,12.7,12.7,68,0.00,,---,0.00,VWS V13.01,2013-05-29 17:21:00,
2013-05-29 13:22:00,88.5,76.6,29.99,ENE,68,16.3,16.3,68,0.00,,---,0.00,VWS V13.01,2013-05-29 17:22:00,
2013-05-29 13:23:00,88.7,76.3,29.99,NNE,22,9.8,9.8,67,0.00,,---,0.00,VWS V13.01,2013-05-29 17:23:00,
2013-05-29 13:24:00,88.7,76.8,29.99,ENE,68,7.6,7.6,68,0.00,,---,0.00,VWS V13.01,2013-05-29 17:24:00,
2013-05-29 13:26:00,88.7,76.8,29.99,East,90,14.3,14.3,68,0.00,,---,0.00,VWS V13.01,2013-05-29 17:26:00,
2013-05-29 13:27:00,88.7,76.8,29.99,NE,45,10.0,10.0,68,0.00,,---,0.00,VWS V13.01,2013-05-29 17:27:00,
2013-05-29 13:28:00,88.8,76.9,29.99,ENE,68,2.0,2.0,68,0.00,,---,0.00,VWS V13.01,2013-05-29 17:28:00,
2013-05-29 13:30:00,88.8,76.9,29.99,ENE,68,4.4,4.4,68,0.00,,---,0.00,VWS V13.01,2013-05-29 17:30:00,
2013-05-29 13:31:00,88.8,76.9,29.99,NE,45,5.5,5.5,68,0.00,,---,0.00,VWS V13.01,2013-05-29 17:31:00,
2013-05-29 13:32:00,89.2,77.7,29.99,ENE,68,6.7,6.7,69,0.00,,---,0.00,VWS V13.01,2013-05-29 17:32:00,
2013-05-29 13:33:00,89.2,77.7,29.99,ENE,68,3.5,3.5,69,0.00,,---,0.00,VWS V13.01,2013-05-29 17:33:00,
2013-05-29 13:35:00,89.0,77.9,29.99,SSE,158,2.0,2.0,70,0.00,,---,0.00,VWS V13.01,2013-05-29 17:35:00,
2013-05-29 13:36:00,88.8,78.6,29.99,East,90,5.1,5.1,72,0.00,,---,0.00,VWS V13.01,2013-05-29 17:36:00,
2013-05-29 13:37:00,88.8,78.6,29.99,East,90,10.5,10.5,72,0.00,,---,0.00,VWS V13.01,2013-05-29 17:37:00,
2013-05-29 13:38:00,88.7,78.5,29.99,East,90,0.0,0.0,72,0.00,,---,0.00,VWS V13.01,2013-05-29 17:38:00,
2013-05-29 13:40:00,88.3,78.6,29.98,ESE,112,3.5,3.5,73,0.00,,---,0.00,VWS V13.01,2013-05-29 17:40:00,
2013-05-29 13:41:00,88.1,78.4,29.99,East,90,12.7,12.7,73,0.00,,---,0.00,VWS V13.01,2013-05-29 17:41:00,
2013-05-29 13:42:00,88.1,78.4,29.99,East,90,12.7,12.7,73,0.00,,---,0.00,VWS V13.01,2013-05-29 17:42:00,
2013-05-29 13:44:00,87.9,78.2,29.99,ENE,68,10.2,10.2,73,0.00,,---,0.00,VWS V13.01,2013-05-29 17:44:00,
2013-05-29 13:45:00,87.9,78.2,29.99,ENE,68,13.6,13.6,73,0.00,,---,0.00,VWS V13.01,2013-05-29 17:45:00,
2013-05-29 13:47:00,87.9,78.2,29.98,ENE,68,5.3,5.3,73,0.00,,---,0.00,VWS V13.01,2013-05-29 17:47:00,
2013-05-29 13:49:00,87.9,78.2,29.98,ENE,68,12.3,12.3,73,0.00,,---,0.00,VWS V13.01,2013-05-29 17:49:00,
2013-05-29 13:50:00,87.9,78.2,29.99,East,90,8.5,8.5,73,0.00,,---,0.00,VWS V13.01,2013-05-29 17:50:00,
2013-05-29 13:52:00,87.8,78.1,29.99,ESE,112,10.0,10.0,73,0.00,,---,0.00,VWS V13.01,2013-05-29 17:52:00,
2013-05-29 13:54:00,87.8,77.7,29.98,SE,135,7.3,7.3,72,0.00,,---,0.00,VWS V13.01,2013-05-29 17:54:00,
2013-05-29 13:55:00,87.8,77.7,29.98,ENE,68,1.3,1.3,72,0.00,,---,0.00,VWS V13.01,2013-05-29 17:55:00,
2013-05-29 13:57:00,87.9,77.8,29.98,East,90,9.8,9.8,72,0.00,,---,0.00,VWS V13.01,2013-05-29 17:57:00,
2013-05-29 13:59:00,87.9,77.8,29.98,ENE,68,7.3,7.3,72,0.00,,---,0.00,VWS V13.01,2013-05-29 17:59:00,
2013-05-29 14:00:00,87.9,77.3,29.98,East,90,8.0,8.0,71,0.00,,---,0.00,VWS V13.01,2013-05-29 18:00:00,
2013-05-29 14:02:00,87.9,77.3,29.98,NE,45,11.8,11.8,71,0.00,,---,0.00,VWS V13.01,2013-05-29 18:02:00,
2013-05-29 14:04:00,88.1,77.5,29.98,ENE,68,9.3,9.3,71,0.00,,---,0.00,VWS V13.01,2013-05-29 18:04:00,
2013-05-29 14:06:00,88.3,77.7,29.98,ESE,112,9.1,9.1,71,0.00,,---,0.00,VWS V13.01,2013-05-29 18:06:00,
2013-05-29 14:07:00,88.3,77.7,29.97,NE,45,11.4,11.4,71,0.00,,---,0.00,VWS V13.01,2013-05-29 18:07:00,
2013-05-29 14:09:00,88.5,77.5,29.97,ENE,68,12.9,12.9,70,0.00,,---,0.00,VWS V13.01,2013-05-29 18:09:00,
2013-05-29 14:11:00,88.5,77.5,29.97,East,90,8.5,8.5,70,0.00,,---,0.00,VWS V13.01,2013-05-29 18:11:00,
2013-05-29 14:12:00,88.5,77.5,29.97,ENE,68,7.8,7.8,70,0.00,,---,0.00,VWS V13.01,2013-05-29 18:12:00,
2013-05-29 14:14:00,88.5,77.0,29.98,East,90,8.0,8.0,69,0.00,,---,0.00,VWS V13.01,2013-05-29 18:14:00,
2013-05-29 14:16:00,88.7,77.2,29.97,East,90,8.7,8.7,69,0.00,,---,0.00,VWS V13.01,2013-05-29 18:16:00,
2013-05-29 14:17:00,88.7,77.2,29.97,East,90,18.5,18.5,69,0.00,,---,0.00,VWS V13.01,2013-05-29 18:17:00,
2013-05-29 14:19:00,88.8,77.3,29.97,ESE,112,7.3,7.3,69,0.00,,---,0.00,VWS V13.01,2013-05-29 18:19:00,
2013-05-29 14:21:00,88.8,77.3,29.97,East,90,3.8,3.8,69,0.00,,---,0.00,VWS V13.01,2013-05-29 18:21:00,
2013-05-29 14:22:00,88.8,77.3,29.97,ENE,68,6.2,6.2,69,0.00,,---,0.00,VWS V13.01,2013-05-29 18:22:00,
2013-05-29 14:24:00,89.2,77.3,29.97,NE,45,7.6,7.6,68,0.00,,---,0.00,VWS V13.01,2013-05-29 18:24:00,
2013-05-29 14:26:00,89.2,77.3,29.97,ESE,112,1.7,1.7,68,0.00,,---,0.00,VWS V13.01,2013-05-29 18:26:00,
2013-05-29 14:27:00,89.2,77.3,29.97,ENE,68,12.3,12.3,68,0.00,,---,0.00,VWS V13.01,2013-05-29 18:27:00,
2013-05-29 14:28:00,89.2,77.3,29.97,ESE,112,14.5,14.5,68,0.00,,---,0.00,VWS V13.01,2013-05-29 18:28:00,
2013-05-29 14:29:00,89.2,77.3,29.97,ESE,112,8.2,8.2,68,0.00,,---,0.00,VWS V13.01,2013-05-29 18:29:00,
2013-05-29 14:31:00,89.2,76.8,29.97,ENE,68,15.8,15.8,67,0.00,,---,0.00,VWS V13.01,2013-05-29 18:31:00,
2013-05-29 14:32:00,89.4,77.0,29.96,NE,45,11.8,11.8,67,0.00,,---,0.00,VWS V13.01,2013-05-29 18:32:00,
2013-05-29 14:33:00,89.4,77.0,29.96,ENE,68,7.3,7.3,67,0.00,,---,0.00,VWS V13.01,2013-05-29 18:33:00,
2013-05-29 14:34:00,89.4,77.0,29.96,ESE,112,1.5,1.5,67,0.00,,---,0.00,VWS V13.01,2013-05-29 18:34:00,
2013-05-29 14:36:00,89.4,77.0,29.96,NE,45,6.2,6.2,67,0.00,,---,0.00,VWS V13.01,2013-05-29 18:36:00,
2013-05-29 14:37:00,89.4,76.6,29.97,NNE,22,0.0,0.0,66,0.00,,---,0.00,VWS V13.01,2013-05-29 18:37:00,
2013-05-29 14:38:00,89.6,77.2,29.96,East,90,6.0,6.0,67,0.00,,---,0.00,VWS V13.01,2013-05-29 18:38:00,
2013-05-29 14:39:00,89.7,76.8,29.96,ENE,68,0.0,0.0,66,0.00,,---,0.00,VWS V13.01,2013-05-29 18:39:00,
2013-05-29 14:41:00,89.9,77.0,29.96,East,90,3.8,3.8,66,0.00,,---,0.00,VWS V13.01,2013-05-29 18:41:00,
2013-05-29 14:42:00,89.9,77.5,29.96,East,90,10.2,10.2,67,0.00,,---,0.00,VWS V13.01,2013-05-29 18:42:00,
2013-05-29 14:43:00,90.1,77.7,29.96,SSE,158,2.4,2.4,67,0.00,,---,0.00,VWS V13.01,2013-05-29 18:43:00,
2013-05-29 14:44:00,90.1,77.2,29.96,East,90,9.8,9.8,66,0.00,,---,0.00,VWS V13.01,2013-05-29 18:44:00,
2013-05-29 14:46:00,90.3,77.4,29.96,NNE,22,8.9,8.9,66,0.00,,---,0.00,VWS V13.01,2013-05-29 18:46:00,
2013-05-29 14:47:00,90.3,77.4,29.96,East,90,7.6,7.6,66,0.00,,---,0.00,VWS V13.01,2013-05-29 18:47:00,
2013-05-29 14:48:00,90.3,77.4,29.96,NNE,22,8.9,8.9,66,0.00,,---,0.00,VWS V13.01,2013-05-29 18:48:00,
2013-05-29 14:50:00,90.5,77.1,29.96,ENE,68,6.2,6.2,65,0.00,,---,0.00,VWS V13.01,2013-05-29 18:50:00,
2013-05-29 14:51:00,90.5,77.1,29.96,East,90,5.8,5.8,65,0.00,,---,0.00,VWS V13.01,2013-05-29 18:51:00,
2013-05-29 14:52:00,90.5,77.1,29.96,East,90,5.1,5.1,65,0.00,,---,0.00,VWS V13.01,2013-05-29 18:52:00,
2013-05-29 14:53:00,90.5,77.1,29.96,SSW,202,0.0,0.0,65,0.00,,---,0.00,VWS V13.01,2013-05-29 18:53:00,
2013-05-29 14:55:00,90.5,77.1,29.96,East,90,8.7,8.7,65,0.00,,---,0.00,VWS V13.01,2013-05-29 18:55:00,
2013-05-29 14:56:00,90.6,77.2,29.96,SE,135,7.3,7.3,65,0.00,,---,0.00,VWS V13.01,2013-05-29 18:56:00,
2013-05-29 14:57:00,90.8,77.4,29.96,East,90,6.9,6.9,65,0.00,,---,0.00,VWS V13.01,2013-05-29 18:57:00,
2013-05-29 14:58:00,90.8,77.4,29.96,East,90,6.9,6.9,65,0.00,,---,0.00,VWS V13.01,2013-05-29 18:58:00,
2013-05-29 15:00:00,91.2,77.8,29.96,ENE,68,1.3,1.3,65,0.00,,---,0.00,VWS V13.01,2013-05-29 19:00:00,
2013-05-29 15:01:00,91.2,77.3,29.96,East,90,3.5,3.5,64,0.00,,---,0.00,VWS V13.01,2013-05-29 19:01:00,
2013-05-29 15:02:00,91.5,77.6,29.96,East,90,7.1,7.1,64,0.00,,---,0.00,VWS V13.01,2013-05-29 19:02:00,
2013-05-29 15:03:00,91.5,77.6,29.96,East,90,7.1,7.1,64,0.00,,---,0.00,VWS V13.01,2013-05-29 19:03:00,
2013-05-29 15:05:00,91.5,77.6,29.96,ENE,68,8.9,8.9,64,0.00,,---,0.00,VWS V13.01,2013-05-29 19:05:00,
2013-05-29 15:06:00,91.5,77.6,29.96,East,90,6.0,6.0,64,0.00,,---,0.00,VWS V13.01,2013-05-29 19:06:00,
2013-05-29 15:07:00,91.5,77.1,29.96,East,90,8.5,8.5,63,0.00,,---,0.00,VWS V13.01,2013-05-29 19:07:00,
2013-05-29 15:08:00,91.5,77.1,29.96,East,90,8.5,8.5,63,0.00,,---,0.00,VWS V13.01,2013-05-29 19:08:00,
2013-05-29 15:10:00,91.5,77.1,29.96,ENE,68,4.6,4.6,63,0.00,,---,0.00,VWS V13.01,2013-05-29 19:10:00,
2013-05-29 15:11:00,91.5,77.1,29.96,NE,45,4.0,4.0,63,0.00,,---,0.00,VWS V13.01,2013-05-29 19:11:00,
2013-05-29 15:13:00,91.5,77.1,29.96,ENE,68,14.9,14.9,63,0.00,,---,0.00,VWS V13.01,2013-05-29 19:13:00,
2013-05-29 15:15:00,91.5,77.1,29.96,ESE,112,4.6,4.6,63,0.00,,---,0.00,VWS V13.01,2013-05-29 19:15:00,
2013-05-29 15:17:00,91.7,77.8,29.96,ESE,112,11.1,11.1,64,0.00,,---,0.00,VWS V13.01,2013-05-29 19:17:00,
2013-05-29 15:18:00,91.5,77.6,29.96,ENE,68,8.2,8.2,64,0.00,,---,0.00,VWS V13.01,2013-05-29 19:18:00,
2013-05-29 15:20:00,91.5,77.6,29.96,East,90,10.9,10.9,64,0.00,,---,0.00,VWS V13.01,2013-05-29 19:20:00,
2013-05-29 15:22:00,91.2,77.8,29.96,ENE,68,8.0,8.0,65,0.00,,---,0.00,VWS V13.01,2013-05-29 19:22:00,
2013-05-29 15:23:00,91.0,77.6,29.96,NE,45,4.6,4.6,65,0.00,,---,0.00,VWS V13.01,2013-05-29 19:23:00,
2013-05-29 15:25:00,90.5,77.1,29.96,ENE,68,11.1,11.1,65,0.00,,---,0.00,VWS V13.01,2013-05-29 19:25:00,
2013-05-29 15:27:00,90.1,77.2,29.96,ENE,68,10.2,10.2,66,0.00,,---,0.00,VWS V13.01,2013-05-29 19:27:00,
2013-05-29 15:28:00,89.9,77.0,29.96,NNE,22,3.3,3.3,66,0.00,,---,0.00,VWS V13.01,2013-05-29 19:28:00,
2013-05-29 15:30:00,89.7,76.8,29.96,East,90,6.0,6.0,66,0.00,,---,0.00,VWS V13.01,2013-05-29 19:30:00,
2013-05-29 15:32:00,89.7,76.8,29.96,East,90,7.6,7.6,66,0.00,,---,0.00,VWS V13.01,2013-05-29 19:32:00,
2013-05-29 15:33:00,89.4,76.6,29.96,ESE,112,9.6,9.6,66,0.00,,---,0.00,VWS V13.01,2013-05-29 19:33:00,
2013-05-29 15:34:00,89.4,76.6,29.96,East,90,6.4,6.4,66,0.00,,---,0.00,VWS V13.01,2013-05-29 19:34:00,
2013-05-29 15:35:00,89.4,76.6,29.96,ESE,112,11.6,11.6,66,0.00,,---,0.00,VWS V13.01,2013-05-29 19:35:00,
2013-05-29 15:37:00,89.2,76.8,29.96,SE,135,6.9,6.9,67,0.00,,---,0.00,VWS V13.01,2013-05-29 19:37:00,
2013-05-29 15:38:00,88.8,76.4,29.96,NE,45,6.2,6.2,67,0.00,,---,0.00,VWS V13.01,2013-05-29 19:38:00,
2013-05-29 15:39:00,88.8,76.4,29.96,NE,45,6.9,6.9,67,0.00,,---,0.00,VWS V13.01,2013-05-29 19:39:00,
2013-05-29 15:40:00,88.8,76.4,29.96,NNE,22,9.1,9.1,67,0.00,,---,0.00,VWS V13.01,2013-05-29 19:40:00,
2013-05-29 15:42:00,88.8,76.4,29.96,ENE,68,11.1,11.1,67,0.00,,---,0.00,VWS V13.01,2013-05-29 19:42:00,
2013-05-29 15:43:00,88.8,76.4,29.96,East,90,9.8,9.8,67,0.00,,---,0.00,VWS V13.01,2013-05-29 19:43:00,
2013-05-29 15:44:00,89.2,76.8,29.96,ENE,68,14.9,14.9,67,0.00,,---,0.00,VWS V13.01,2013-05-29 19:44:00,
2013-05-29 15:46:00,89.2,76.4,29.96,ESE,112,10.7,10.7,66,0.00,,---,0.00,VWS V13.01,2013-05-29 19:46:00,
2013-05-29 15:47:00,89.2,76.4,29.96,ENE,68,8.2,8.2,66,0.00,,---,0.00,VWS V13.01,2013-05-29 19:47:00,
2013-05-29 15:48:00,89.4,77.0,29.96,ENE,68,3.1,3.1,67,0.00,,---,0.00,VWS V13.01,2013-05-29 19:48:00,
2013-05-29 15:49:00,89.4,77.0,29.96,SE,135,7.1,7.1,67,0.00,,---,0.00,VWS V13.01,2013-05-29 19:49:00,
2013-05-29 15:51:00,89.7,76.8,29.96,NE,45,15.2,15.2,66,0.00,,---,0.00,VWS V13.01,2013-05-29 19:51:00,
2013-05-29 15:52:00,89.9,77.0,29.96,NE,45,11.1,11.1,66,0.00,,---,0.00,VWS V13.01,2013-05-29 19:52:00,
2013-05-29 15:53:00,89.9,77.0,29.96,ENE,68,8.2,8.2,66,0.00,,---,0.00,VWS V13.01,2013-05-29 19:53:00,
2013-05-29 15:54:00,90.1,77.2,29.96,East,90,7.1,7.1,66,0.00,,---,0.00,VWS V13.01,2013-05-29 19:54:00,
2013-05-29 15:56:00,90.5,77.1,29.96,East,90,6.2,6.2,65,0.00,,---,0.00,VWS V13.01,2013-05-29 19:56:00,
2013-05-29 15:57:00,90.5,77.1,29.96,East,90,7.6,7.6,65,0.00,,---,0.00,VWS V13.01,2013-05-29 19:57:00,
2013-05-29 15:58:00,90.6,77.2,29.96,SE,135,5.8,5.8,65,0.00,,---,0.00,VWS V13.01,2013-05-29 19:58:00,
2013-05-29 15:59:00,90.8,77.4,29.96,ENE,68,6.2,6.2,65,0.00,,---,0.00,VWS V13.01,2013-05-29 19:59:00,
2013-05-29 16:01:00,91.0,77.6,29.96,ENE,68,3.8,3.8,65,0.00,,---,0.00,VWS V13.01,2013-05-29 20:01:00,
2013-05-29 16:02:00,91.0,77.6,29.96,East,90,4.9,4.9,65,0.00,,---,0.00,VWS V13.01,2013-05-29 20:02:00,
2013-05-29 16:03:00,91.0,78.1,29.96,ENE,68,10.7,10.7,66,0.00,,---,0.00,VWS V13.01,2013-05-29 20:03:00,
2013-05-29 16:04:00,91.2,78.7,29.95,East,90,6.9,6.9,67,0.02,,---,0.02,VWS V13.01,2013-05-29 20:04:00,
2013-05-29 16:06:00,91.0,79.4,29.96,ENE,68,14.9,14.9,69,0.04,,---,0.04,VWS V13.01,2013-05-29 20:06:00,
2013-05-29 16:07:00,90.3,78.8,29.96,ESE,112,9.3,9.3,69,0.06,,---,0.06,VWS V13.01,2013-05-29 20:07:00,
2013-05-29 16:08:00,89.7,78.6,29.96,East,90,11.4,11.4,70,0.06,,---,0.06,VWS V13.01,2013-05-29 20:08:00,
2013-05-29 16:09:00,89.2,78.6,29.96,ENE,68,14.0,14.0,71,0.08,,---,0.08,VWS V13.01,2013-05-29 20:09:00,
2013-05-29 16:11:00,88.3,78.1,29.96,ENE,68,3.1,3.1,72,0.10,,---,0.10,VWS V13.01,2013-05-29 20:11:00,
2013-05-29 16:12:00,87.9,78.2,29.96,East,90,2.9,2.9,73,0.10,,---,0.10,VWS V13.01,2013-05-29 20:12:00,
2013-05-29 16:13:00,87.0,77.3,29.95,East,90,0.0,0.0,73,0.10,,---,0.10,VWS V13.01,2013-05-29 20:13:00,
2013-05-29 16:14:00,87.0,77.3,29.95,East,90,0.0,0.0,73,0.10,,---,0.10,VWS V13.01,2013-05-29 20:14:00,
2013-05-29 16:16:00,86.7,77.8,29.95,East,90,0.0,0.0,75,0.10,,---,0.10,VWS V13.01,2013-05-29 20:16:00,
2013-05-29 16:17:00,86.5,77.6,29.95,SSE,158,2.2,2.2,75,0.10,,---,0.10,VWS V13.01,2013-05-29 20:17:00,
2013-05-29 16:19:00,86.3,77.4,29.95,ESE,112,0.0,0.0,75,0.10,,---,0.10,VWS V13.01,2013-05-29 20:19:00,
2013-05-29 16:21:00,86.1,77.7,29.95,East,90,0.0,0.0,76,0.10,,---,0.10,VWS V13.01,2013-05-29 20:21:00,
2013-05-29 16:22:00,86.1,77.7,29.95,SE,135,0.0,0.0,76,0.10,,---,0.10,VWS V13.01,2013-05-29 20:22:00,
2013-05-29 16:24:00,86.1,77.7,29.95,NE,45,0.0,0.0,76,0.10,,---,0.10,VWS V13.01,2013-05-29 20:24:00,
2013-05-29 16:26:00,86.1,77.7,29.96,ENE,68,0.0,0.0,76,0.10,,---,0.10,VWS V13.01,2013-05-29 20:26:00,
2013-05-29 16:27:00,86.1,77.7,29.96,ENE,68,2.4,2.4,76,0.12,,---,0.12,VWS V13.01,2013-05-29 20:27:00,
2013-05-29 16:29:00,85.8,77.4,29.95,NE,45,6.4,6.4,76,0.16,,---,0.16,VWS V13.01,2013-05-29 20:29:00,
2013-05-29 16:31:00,85.6,77.6,29.95,ESE,112,4.0,4.0,77,0.18,,---,0.19,VWS V13.01,2013-05-29 20:31:00,
2013-05-29 16:32:00,85.2,77.2,29.95,South,180,3.1,3.8,77,0.18,,---,0.19,VWS V13.01,2013-05-29 20:32:00,
2013-05-29 16:34:00,85.2,77.2,29.95,NE,45,0.0,0.0,77,0.18,,---,0.19,VWS V13.01,2013-05-29 20:34:00,
2013-05-29 16:36:00,84.9,76.9,29.96,NE,45,0.0,0.0,77,0.18,,---,0.19,VWS V13.01,2013-05-29 20:36:00,
2013-05-29 16:37:00,84.9,76.9,29.95,East,90,1.7,1.7,77,0.18,,---,0.19,VWS V13.01,2013-05-29 20:37:00,
2013-05-29 16:39:00,84.9,77.3,29.95,NE,45,0.0,0.0,78,0.18,,---,0.19,VWS V13.01,2013-05-29 20:39:00,
2013-05-29 16:41:00,84.7,77.1,29.95,ESE,112,0.0,0.0,78,0.18,,---,0.19,VWS V13.01,2013-05-29 20:41:00,
2013-05-29 16:42:00,84.7,77.1,29.96,East,90,2.0,2.0,78,0.18,,---,0.19,VWS V13.01,2013-05-29 20:42:00,
2013-05-29 16:44:00,84.7,77.1,29.96,ENE,68,11.8,11.8,78,0.18,,---,0.19,VWS V13.01,2013-05-29 20:44:00,
2013-05-29 16:46:00,84.7,76.7,29.96,NE,45,0.0,0.0,77,0.18,,---,0.19,VWS V13.01,2013-05-29 20:46:00,
2013-05-29 16:47:00,84.7,76.7,29.96,ESE,112,8.9,8.9,77,0.18,,---,0.19,VWS V13.01,2013-05-29 20:47:00,
2013-05-29 16:49:00,84.7,76.7,29.96,ESE,112,6.2,6.2,77,0.18,,---,0.19,VWS V13.01,2013-05-29 20:49:00,
2013-05-29 16:51:00,84.7,76.7,29.96,ENE,68,0.0,0.0,77,0.18,,---,0.19,VWS V13.01,2013-05-29 20:51:00,
2013-05-29 16:52:00,84.9,76.9,29.96,ENE,68,0.0,0.0,77,0.18,,---,0.19,VWS V13.01,2013-05-29 20:52:00,
2013-05-29 16:54:00,84.7,76.7,29.96,SSE,158,0.0,0.0,77,0.18,,---,0.19,VWS V13.01,2013-05-29 20:54:00,
2013-05-29 16:56:00,84.7,76.7,29.96,East,90,13.6,13.6,77,0.18,,---,0.19,VWS V13.01,2013-05-29 20:56:00,
2013-05-29 16:57:00,84.7,76.7,29.96,ENE,68,9.8,10.2,77,0.18,,---,0.19,VWS V13.01,2013-05-29 20:57:00,
2013-05-29 16:59:00,84.7,76.7,29.96,SE,135,0.0,0.0,77,0.18,,---,0.19,VWS V13.01,2013-05-29 20:59:00,
2013-05-29 17:01:00,84.9,76.9,29.96,East,90,0.0,0.0,77,0.18,,---,0.19,VWS V13.01,2013-05-29 21:01:00,
2013-05-29 17:02:00,85.2,77.2,29.96,ESE,112,7.6,10.7,77,0.14,,---,0.19,VWS V13.01,2013-05-29 21:02:00,
2013-05-29 17:04:00,85.6,77.2,29.96,ENE,68,4.4,4.4,76,0.14,,---,0.19,VWS V13.01,2013-05-29 21:04:00,
2013-05-29 17:07:00,86.1,77.2,29.96,ENE,68,2.2,2.2,75,0.10,,---,0.19,VWS V13.01,2013-05-29 21:07:00,
2013-05-29 17:09:00,86.5,77.2,29.96,ESE,112,0.0,0.0,74,0.10,,---,0.19,VWS V13.01,2013-05-29 21:09:00,
2013-05-29 17:10:00,86.7,77.0,29.96,ENE,68,5.5,5.5,73,0.10,,---,0.19,VWS V13.01,2013-05-29 21:10:00,
2013-05-29 17:12:00,86.9,77.2,29.96,East,90,7.3,7.3,73,0.08,,---,0.19,VWS V13.01,2013-05-29 21:12:00,
2013-05-29 17:13:00,87.0,77.3,29.96,WSW,248,0.0,0.0,73,0.08,,---,0.19,VWS V13.01,2013-05-29 21:13:00,
2013-05-29 17:14:00,87.4,77.3,29.96,East,90,5.1,5.1,72,0.08,,---,0.19,VWS V13.01,2013-05-29 21:14:00,
2013-05-29 17:15:00,87.6,77.5,29.96,SSE,158,1.5,1.5,72,0.08,,---,0.19,VWS V13.01,2013-05-29 21:15:00,
2013-05-29 17:17:00,87.9,77.3,29.96,ENE,68,2.4,2.4,71,0.08,,---,0.19,VWS V13.01,2013-05-29 21:17:00,
2013-05-29 17:19:00,88.1,77.5,29.96,East,90,8.0,8.0,71,0.08,,---,0.19,VWS V13.01,2013-05-29 21:19:00,
2013-05-29 17:20:00,87.9,77.3,29.96,East,90,5.5,5.5,71,0.08,,---,0.19,VWS V13.01,2013-05-29 21:20:00,
2013-05-29 17:22:00,87.8,77.2,29.96,ENE,68,8.0,8.0,71,0.08,,---,0.19,VWS V13.01,2013-05-29 21:22:00,
2013-05-29 17:24:00,87.6,77.0,29.97,ENE,68,8.7,8.7,71,0.08,,---,0.19,VWS V13.01,2013-05-29 21:24:00,
2013-05-29 17:25:00,87.4,76.8,29.97,ENE,68,3.1,3.1,71,0.08,,---,0.19,VWS V13.01,2013-05-29 21:25:00,
2013-05-29 17:27:00,87.0,76.0,29.97,ESE,112,9.6,9.6,70,0.02,,---,0.19,VWS V13.01,2013-05-29 21:27:00,
2013-05-29 17:29:00,86.7,75.8,29.96,ENE,68,1.5,1.5,70,0.02,,---,0.19,VWS V13.01,2013-05-29 21:29:00,
2013-05-29 17:30:00,86.5,76.0,29.96,East,90,5.1,5.1,71,0.02,,---,0.19,VWS V13.01,2013-05-29 21:30:00,
2013-05-29 17:32:00,86.3,76.2,29.97,East,90,6.4,6.4,72,0.00,,---,0.19,VWS V13.01,2013-05-29 21:32:00,
2013-05-29 17:33:00,86.1,76.0,29.97,East,90,6.9,6.9,72,0.00,,---,0.19,VWS V13.01,2013-05-29 21:33:00,
2013-05-29 17:35:00,85.8,75.7,29.97,East,90,2.2,2.2,72,0.00,,---,0.19,VWS V13.01,2013-05-29 21:35:00,
2013-05-29 17:37:00,85.8,76.2,29.97,ENE,68,10.5,10.5,73,0.00,,---,0.19,VWS V13.01,2013-05-29 21:37:00,
2013-05-29 17:38:00,85.8,76.2,29.97,ENE,68,15.6,15.6,73,0.00,,---,0.19,VWS V13.01,2013-05-29 21:38:00,
2013-05-29 17:40:00,85.6,76.0,29.97,NE,45,3.5,3.5,73,0.00,,---,0.19,VWS V13.01,2013-05-29 21:40:00,
2013-05-29 17:42:00,85.2,75.6,29.97,ENE,68,2.0,2.0,73,0.00,,---,0.19,VWS V13.01,2013-05-29 21:42:00,
2013-05-29 17:43:00,85.2,75.6,29.97,ENE,68,2.0,2.0,73,0.00,,---,0.19,VWS V13.01,2013-05-29 21:43:00,
2013-05-29 17:45:00,85.1,75.5,29.97,SE,135,5.1,5.1,73,0.00,,---,0.19,VWS V13.01,2013-05-29 21:45:00,
2013-05-29 17:47:00,84.9,75.3,29.97,ENE,68,10.5,10.5,73,0.00,,---,0.19,VWS V13.01,2013-05-29 21:47:00,
2013-05-29 17:48:00,84.9,75.3,29.97,ENE,68,10.5,10.5,73,0.00,,---,0.19,VWS V13.01,2013-05-29 21:48:00,
2013-05-29 17:50:00,84.9,75.7,29.97,SE,135,6.7,6.7,74,0.00,,---,0.19,VWS V13.01,2013-05-29 21:50:00,
2013-05-29 17:53:00,84.7,75.5,29.97,ESE,112,3.3,3.3,74,0.00,,---,0.19,VWS V13.01,2013-05-29 21:53:00,
2013-05-29 17:55:00,84.7,75.5,29.97,ESE,112,7.3,7.3,74,0.00,,---,0.19,VWS V13.01,2013-05-29 21:55:00,
2013-05-29 17:58:00,84.5,75.3,29.97,ENE,68,6.0,6.0,74,0.00,,---,0.19,VWS V13.01,2013-05-29 21:58:00,
2013-05-29 18:00:00,84.5,75.3,29.97,East,90,12.9,12.9,74,0.00,,---,0.19,VWS V13.01,2013-05-29 22:00:00,
2013-05-29 18:01:00,84.5,75.3,29.97,NE,45,5.1,5.1,74,0.00,,---,0.19,VWS V13.01,2013-05-29 22:01:00,
2013-05-29 18:03:00,84.5,75.3,29.97,East,90,9.3,9.3,74,0.00,,---,0.19,VWS V13.01,2013-05-29 22:03:00,
2013-05-29 18:05:00,84.5,75.3,29.97,East,90,4.6,4.6,74,0.00,,---,0.19,VWS V13.01,2013-05-29 22:05:00,
2013-05-29 18:06:00,84.3,75.1,29.97,ENE,68,13.6,13.6,74,0.00,,---,0.19,VWS V13.01,2013-05-29 22:06:00,
2013-05-29 18:08:00,84.5,75.3,29.97,East,90,0.0,0.0,74,0.00,,---,0.19,VWS V13.01,2013-05-29 22:08:00,
2013-05-29 18:09:00,84.5,75.3,29.98,ENE,68,6.7,6.7,74,0.00,,---,0.19,VWS V13.01,2013-05-29 22:09:00,
2013-05-29 18:10:00,84.3,75.1,29.98,East,90,4.4,4.4,74,0.00,,---,0.19,VWS V13.01,2013-05-29 22:10:00,
2013-05-29 18:11:00,84.5,75.7,29.98,ENE,68,6.7,6.7,75,0.00,,---,0.19,VWS V13.01,2013-05-29 22:11:00,
2013-05-29 18:13:00,84.3,75.5,29.98,NE,45,4.6,4.6,75,0.00,,---,0.19,VWS V13.01,2013-05-29 22:13:00,
2013-05-29 18:14:00,84.5,75.7,29.98,ENE,68,0.8,0.8,75,0.00,,---,0.19,VWS V13.01,2013-05-29 22:14:00,
2013-05-29 18:15:00,84.3,75.5,29.98,East,90,10.2,10.2,75,0.00,,---,0.19,VWS V13.01,2013-05-29 22:15:00,
2013-05-29 18:16:00,84.3,75.5,29.98,NE,45,4.2,4.2,75,0.00,,---,0.19,VWS V13.01,2013-05-29 22:16:00,
2013-05-29 18:18:00,84.3,75.1,29.98,ENE,68,11.4,11.4,74,0.00,,---,0.19,VWS V13.01,2013-05-29 22:18:00,
2013-05-29 18:19:00,84.3,75.1,29.98,East,90,7.6,7.6,74,0.00,,---,0.19,VWS V13.01,2013-05-29 22:19:00,
2013-05-29 18:20:00,84.3,75.1,29.98,SE,135,0.0,0.0,74,0.00,,---,0.19,VWS V13.01,2013-05-29 22:20:00,
2013-05-29 18:21:00,84.2,75.0,29.99,East,90,5.1,5.1,74,0.00,,---,0.19,VWS V13.01,2013-05-29 22:21:00,
2013-05-29 18:23:00,84.2,75.0,29.98,ENE,68,6.0,6.0,74,0.00,,---,0.19,VWS V13.01,2013-05-29 22:23:00,
2013-05-29 18:24:00,84.2,75.0,29.98,ENE,68,10.0,10.0,74,0.00,,---,0.19,VWS V13.01,2013-05-29 22:24:00,
2013-05-29 18:25:00,84.0,74.8,29.98,East,90,5.3,5.3,74,0.00,,---,0.19,VWS V13.01,2013-05-29 22:25:00,
2013-05-29 18:26:00,84.0,74.8,29.98,SE,135,0.0,0.0,74,0.00,,---,0.19,VWS V13.01,2013-05-29 22:26:00,
2013-05-29 18:28:00,84.0,75.2,29.98,ENE,68,6.4,6.4,75,0.00,,---,0.19,VWS V13.01,2013-05-29 22:28:00,
2013-05-29 18:29:00,84.0,75.2,29.98,NE,45,0.0,0.0,75,0.00,,---,0.19,VWS V13.01,2013-05-29 22:29:00,
2013-05-29 18:30:00,84.0,75.2,29.98,SE,135,0.0,0.0,75,0.00,,---,0.19,VWS V13.01,2013-05-29 22:30:00,
2013-05-29 18:31:00,84.0,75.2,29.98,ESE,112,5.8,5.8,75,0.00,,---,0.19,VWS V13.01,2013-05-29 22:31:00,
2013-05-29 18:33:00,84.0,75.2,29.99,East,90,4.0,4.0,75,0.00,,---,0.19,VWS V13.01,2013-05-29 22:33:00,
2013-05-29 18:34:00,83.8,75.0,29.99,East,90,11.8,11.8,75,0.00,,---,0.19,VWS V13.01,2013-05-29 22:34:00,
2013-05-29 18:35:00,83.8,75.0,29.99,ENE,68,0.0,0.0,75,0.00,,---,0.19,VWS V13.01,2013-05-29 22:35:00,
2013-05-29 18:36:00,83.8,75.0,29.98,ESE,112,6.9,6.9,75,0.00,,---,0.19,VWS V13.01,2013-05-29 22:36:00,
2013-05-29 18:38:00,83.6,75.2,29.98,ESE,112,4.0,4.0,76,0.00,,---,0.19,VWS V13.01,2013-05-29 22:38:00,
2013-05-29 18:39:00,83.6,75.2,29.99,East,90,11.8,11.8,76,0.00,,---,0.19,VWS V13.01,2013-05-29 22:39:00,
2013-05-29 18:40:00,83.4,75.1,29.99,ESE,112,9.6,9.6,76,0.00,,---,0.19,VWS V13.01,2013-05-29 22:40:00,
2013-05-29 18:41:00,83.4,75.1,29.99,ENE,68,3.1,3.1,76,0.00,,---,0.19,VWS V13.01,2013-05-29 22:41:00,
2013-05-29 18:43:00,83.4,75.1,29.98,ENE,68,9.3,9.3,76,0.00,,---,0.19,VWS V13.01,2013-05-29 22:43:00,
2013-05-29 18:44:00,83.4,75.1,29.98,ENE,68,6.2,6.2,76,0.00,,---,0.19,VWS V13.01,2013-05-29 22:44:00,
2013-05-29 18:45:00,83.4,75.1,29.99,ENE,68,9.3,9.3,76,0.00,,---,0.19,VWS V13.01,2013-05-29 22:45:00,
2013-05-29 18:46:00,83.4,74.7,29.99,NNE,22,3.1,3.1,75,0.00,,---,0.19,VWS V13.01,2013-05-29 22:46:00,
2013-05-29 18:48:00,83.4,74.7,29.98,ENE,68,4.6,4.6,75,0.00,,---,0.19,VWS V13.01,2013-05-29 22:48:00,
2013-05-29 18:49:00,83.4,74.7,29.98,ENE,68,5.1,5.1,75,0.00,,---,0.19,VWS V13.01,2013-05-29 22:49:00,
2013-05-29 18:50:00,83.4,74.7,29.98,ESE,112,0.0,0.0,75,0.00,,---,0.19,VWS V13.01,2013-05-29 22:50:00,
2013-05-29 18:51:00,83.3,74.6,29.98,ENE,68,4.0,4.0,75,0.00,,---,0.19,VWS V13.01,2013-05-29 22:51:00,
2013-05-29 18:53:00,83.3,74.9,29.98,ENE,68,8.2,8.2,76,0.00,,---,0.19,VWS V13.01,2013-05-29 22:53:00,
2013-05-29 18:54:00,83.3,74.9,29.98,ENE,68,2.2,2.2,76,0.00,,---,0.19,VWS V13.01,2013-05-29 22:54:00,
2013-05-29 18:56:00,83.3,74.9,29.98,SE,135,5.3,5.3,76,0.00,,---,0.19,VWS V13.01,2013-05-29 22:56:00,
2013-05-29 18:58:00,83.1,74.8,29.99,NE,45,4.0,4.0,76,0.00,,---,0.19,VWS V13.01,2013-05-29 22:58:00,
2013-05-29 18:59:00,83.1,74.4,29.98,ENE,68,0.0,0.0,75,0.00,,---,0.19,VWS V13.01,2013-05-29 22:59:00,
2013-05-29 19:00:00,83.1,74.4,29.98,ENE,68,8.0,8.0,75,0.00,,---,0.19,VWS V13.01,2013-05-29 23:00:00,
2013-05-29 19:01:00,83.1,74.4,29.98,ENE,68,8.0,8.0,75,0.00,,---,0.19,VWS V13.01,2013-05-29 23:01:00,
2013-05-29 19:03:00,83.1,74.4,29.98,East,90,7.8,7.8,75,0.00,,---,0.19,VWS V13.01,2013-05-29 23:03:00,
2013-05-29 19:04:00,83.1,74.4,29.98,ENE,68,8.9,8.9,75,0.00,,---,0.19,VWS V13.01,2013-05-29 23:04:00,
2013-05-29 19:06:00,82.9,74.2,29.99,ENE,68,6.7,6.7,75,0.00,,---,0.19,VWS V13.01,2013-05-29 23:06:00,
2013-05-29 19:08:00,82.9,74.2,29.99,East,90,4.6,4.6,75,0.00,,---,0.19,VWS V13.01,2013-05-29 23:08:00,
2013-05-29 19:09:00,82.9,74.2,29.98,ESE,112,8.9,8.9,75,0.00,,---,0.19,VWS V13.01,2013-05-29 23:09:00,
2013-05-29 19:11:00,82.9,74.6,29.99,East,90,3.5,3.5,76,0.00,,---,0.19,VWS V13.01,2013-05-29 23:11:00,
2013-05-29 19:13:00,82.9,74.6,29.99,East,90,6.2,6.2,76,0.00,,---,0.19,VWS V13.01,2013-05-29 23:13:00,
2013-05-29 19:14:00,82.9,74.6,29.99,ENE,68,2.4,2.4,76,0.00,,---,0.19,VWS V13.01,2013-05-29 23:14:00,
2013-05-29 19:16:00,82.7,74.4,29.98,East,90,0.0,0.0,76,0.00,,---,0.19,VWS V13.01,2013-05-29 23:16:00,
2013-05-29 19:17:00,82.7,74.4,29.99,NE,45,11.4,11.4,76,0.00,,---,0.19,VWS V13.01,2013-05-29 23:17:00,
2013-05-29 19:18:00,82.7,74.4,29.99,East,90,1.7,1.7,76,0.00,,---,0.19,VWS V13.01,2013-05-29 23:18:00,
2013-05-29 19:19:00,82.7,74.4,29.99,ENE,68,4.9,4.9,76,0.00,,---,0.19,VWS V13.01,2013-05-29 23:19:00,
2013-05-29 19:21:00,82.7,74.4,29.99,ESE,112,0.0,0.0,76,0.00,,---,0.19,VWS V13.01,2013-05-29 23:21:00,
2013-05-29 19:22:00,82.7,74.4,29.99,ESE,112,3.3,3.3,76,0.00,,---,0.19,VWS V13.01,2013-05-29 23:22:00,
2013-05-29 19:23:00,82.7,74.4,29.98,SE,135,6.4,6.4,76,0.00,,---,0.19,VWS V13.01,2013-05-29 23:23:00,
2013-05-29 19:25:00,82.7,74.4,29.99,ENE,68,0.8,0.8,76,0.00,,---,0.19,VWS V13.01,2013-05-29 23:25:00,
2013-05-29 19:26:00,82.5,74.2,29.98,East,90,6.4,6.4,76,0.00,,---,0.19,VWS V13.01,2013-05-29 23:26:00,
2013-05-29 19:27:00,82.5,74.2,29.99,ENE,68,0.0,0.0,76,0.00,,---,0.19,VWS V13.01,2013-05-29 23:27:00,
2013-05-29 19:28:00,82.5,74.2,29.99,NE,45,2.4,4.4,76,0.00,,---,0.19,VWS V13.01,2013-05-29 23:28:00,
2013-05-29 19:30:00,82.5,74.2,29.99,North,0,3.1,3.1,76,0.00,,---,0.19,VWS V13.01,2013-05-29 23:30:00,
2013-05-29 19:31:00,82.5,73.8,29.99,East,90,2.2,2.2,75,0.00,,---,0.19,VWS V13.01,2013-05-29 23:31:00,
2013-05-29 19:32:00,82.5,73.8,29.99,ESE,112,0.0,0.0,75,0.00,,---,0.19,VWS V13.01,2013-05-29 23:32:00,
2013-05-29 19:33:00,82.5,73.8,29.99,SE,135,3.5,3.5,75,0.00,,---,0.19,VWS V13.01,2013-05-29 23:33:00,
2013-05-29 19:35:00,82.5,74.2,29.99,ESE,112,6.2,6.2,76,0.00,,---,0.19,VWS V13.01,2013-05-29 23:35:00,
2013-05-29 19:36:00,82.5,74.2,29.99,NE,45,5.3,5.3,76,0.00,,---,0.19,VWS V13.01,2013-05-29 23:36:00,
2013-05-29 19:37:00,82.5,74.2,29.99,ESE,112,0.0,0.0,76,0.00,,---,0.19,VWS V13.01,2013-05-29 23:37:00,
2013-05-29 19:39:00,82.5,74.2,29.99,ESE,112,7.6,7.6,76,0.00,,---,0.19,VWS V13.01,2013-05-29 23:39:00,
2013-05-29 19:40:00,82.5,74.2,29.99,NE,45,0.0,0.0,76,0.00,,---,0.19,VWS V13.01,2013-05-29 23:40:00,
2013-05-29 19:41:00,82.5,74.2,29.99,East,90,5.8,5.8,76,0.00,,---,0.19,VWS V13.01,2013-05-29 23:41:00,
2013-05-29 19:42:00,82.5,74.2,29.99,ENE,68,9.6,9.6,76,0.00,,---,0.19,VWS V13.01,2013-05-29 23:42:00,
2013-05-29 19:44:00,82.4,74.1,30.00,ESE,112,8.2,8.2,76,0.00,,---,0.19,VWS V13.01,2013-05-29 23:44:00,
2013-05-29 19:45:00,82.4,74.1,30.00,ESE,112,9.8,9.8,76,0.00,,---,0.19,VWS V13.01,2013-05-29 23:45:00,
2013-05-29 19:46:00,82.2,73.9,30.00,ENE,68,2.2,2.2,76,0.00,,---,0.19,VWS V13.01,2013-05-29 23:46:00,
2013-05-29 19:47:00,82.2,73.9,30.00,East,90,9.6,9.6,76,0.00,,---,0.19,VWS V13.01,2013-05-29 23:47:00,
2013-05-29 19:49:00,82.2,73.9,30.00,East,90,0.8,0.8,76,0.00,,---,0.19,VWS V13.01,2013-05-29 23:49:00,
2013-05-29 19:50:00,82.2,73.9,30.00,ENE,68,8.7,8.7,76,0.00,,---,0.19,VWS V13.01,2013-05-29 23:50:00,
2013-05-29 19:51:00,82.2,73.9,30.00,NE,45,6.7,6.7,76,0.00,,---,0.19,VWS V13.01,2013-05-29 23:51:00,
2013-05-29 19:52:00,82.2,74.3,30.00,ESE,112,3.5,3.5,77,0.00,,---,0.19,VWS V13.01,2013-05-29 23:52:00,
2013-05-29 19:54:00,82.2,74.3,30.00,ENE,68,15.8,15.8,77,0.00,,---,0.19,VWS V13.01,2013-05-29 23:54:00,
2013-05-29 19:55:00,82.2,74.3,30.00,ENE,68,2.0,2.0,77,0.00,,---,0.19,VWS V13.01,2013-05-29 23:55:00,
2013-05-29 19:56:00,82.2,74.3,30.00,East,90,2.2,2.2,77,0.00,,---,0.19,VWS V13.01,2013-05-29 23:56:00,
2013-05-29 19:57:00,82.2,74.3,30.00,ENE,68,3.8,3.8,77,0.00,,---,0.19,VWS V13.01,2013-05-29 23:57:00,
2013-05-29 19:59:00,82.2,74.3,30.01,ENE,68,2.0,2.0,77,0.00,,---,0.19,VWS V13.01,2013-05-29 23:59:00,
2013-05-29 20:00:00,82.2,74.3,30.01,East,90,3.5,3.5,77,0.00,,---,0.19,VWS V13.01,2013-05-30 00:00:00,
2013-05-29 20:01:00,82.2,74.3,30.01,ENE,68,16.3,16.3,77,0.00,,---,0.19,VWS V13.01,2013-05-30 00:01:00,
2013-05-29 20:02:00,82.2,74.3,30.00,ESE,112,14.0,14.0,77,0.00,,---,0.19,VWS V13.01,2013-05-30 00:02:00,
2013-05-29 20:04:00,82.2,74.3,30.00,SE,135,8.0,8.0,77,0.00,,---,0.19,VWS V13.01,2013-05-30 00:04:00,
2013-05-29 20:05:00,82.2,74.3,30.00,ENE,68,8.9,8.9,77,0.00,,---,0.19,VWS V13.01,2013-05-30 00:05:00,
2013-05-29 20:06:00,82.2,74.3,30.00,SE,135,6.7,6.7,77,0.00,,---,0.19,VWS V13.01,2013-05-30 00:06:00,
2013-05-29 20:08:00,82.0,74.1,30.00,SE,135,0.0,0.0,77,0.00,,---,0.19,VWS V13.01,2013-05-30 00:08:00,
2013-05-29 20:09:00,82.0,74.1,30.00,ENE,68,12.5,12.5,77,0.00,,---,0.19,VWS V13.01,2013-05-30 00:09:00,
2013-05-29 20:10:00,82.0,74.1,30.00,ENE,68,12.5,12.5,77,0.00,,---,0.19,VWS V13.01,2013-05-30 00:10:00,
2013-05-29 20:11:00,82.0,74.1,30.00,East,90,9.1,9.1,77,0.00,,---,0.19,VWS V13.01,2013-05-30 00:11:00,
2013-05-29 20:13:00,82.0,74.1,30.00,ENE,68,9.6,9.6,77,0.00,,---,0.19,VWS V13.01,2013-05-30 00:13:00,
2013-05-29 20:15:00,82.0,74.1,30.00,East,90,3.3,3.3,77,0.00,,---,0.19,VWS V13.01,2013-05-30 00:15:00,
2013-05-29 20:16:00,82.0,74.1,30.00,ENE,68,7.6,7.6,77,0.00,,---,0.19,VWS V13.01,2013-05-30 00:16:00,
2013-05-29 20:18:00,82.0,74.5,30.01,NE,45,0.0,0.0,78,0.00,,---,0.19,VWS V13.01,2013-05-30 00:18:00,
2013-05-29 20:20:00,82.0,74.5,30.01,ENE,68,2.6,2.6,78,0.00,,---,0.19,VWS V13.01,2013-05-30 00:20:00,
2013-05-29 20:21:00,82.0,74.5,30.01,ENE,68,1.7,1.7,78,0.00,,---,0.19,VWS V13.01,2013-05-30 00:21:00,
2013-05-29 20:23:00,82.0,74.5,30.01,ENE,68,12.7,12.7,78,0.00,,---,0.19,VWS V13.01,2013-05-30 00:23:00,
2013-05-29 20:25:00,82.0,74.5,30.01,SE,135,2.9,2.9,78,0.00,,---,0.19,VWS V13.01,2013-05-30 00:25:00,
2013-05-29 20:26:00,82.0,74.5,30.01,SE,135,6.4,6.4,78,0.00,,---,0.19,VWS V13.01,2013-05-30 00:26:00,
2013-05-29 20:28:00,82.0,74.5,30.01,East,90,12.3,12.3,78,0.00,,---,0.19,VWS V13.01,2013-05-30 00:28:00,
2013-05-29 20:30:00,82.0,74.5,30.01,NE,45,6.0,6.0,78,0.00,,---,0.19,VWS V13.01,2013-05-30 00:30:00,
2013-05-29 20:32:00,82.0,74.5,30.01,ESE,112,3.1,3.1,78,0.00,,---,0.19,VWS V13.01,2013-05-30 00:32:00,
2013-05-29 20:33:00,82.0,74.5,30.01,NNE,22,1.3,11.1,78,0.00,,---,0.19,VWS V13.01,2013-05-30 00:33:00,
2013-05-29 20:35:00,82.0,74.5,30.01,East,90,0.0,0.0,78,0.00,,---,0.19,VWS V13.01,2013-05-30 00:35:00,
2013-05-29 20:37:00,82.0,74.5,30.02,ESE,112,4.0,4.0,78,0.00,,---,0.19,VWS V13.01,2013-05-30 00:37:00,
2013-05-29 20:39:00,82.0,74.5,30.02,East,90,3.8,3.8,78,0.00,,---,0.19,VWS V13.01,2013-05-30 00:39:00,
2013-05-29 20:40:00,82.0,74.5,30.02,ENE,68,1.5,1.5,78,0.00,,---,0.19,VWS V13.01,2013-05-30 00:40:00,
2013-05-29 20:41:00,82.0,74.1,30.02,East,90,8.0,8.0,77,0.00,,---,0.19,VWS V13.01,2013-05-30 00:41:00,
2013-05-29 20:42:00,82.0,74.1,30.01,ENE,68,0.0,0.0,77,0.00,,---,0.19,VWS V13.01,2013-05-30 00:42:00,
2013-05-29 20:44:00,82.0,74.1,30.01,ESE,112,2.0,2.0,77,0.00,,---,0.19,VWS V13.01,2013-05-30 00:44:00,
2013-05-29 20:45:00,81.8,73.9,30.01,East,90,2.4,2.4,77,0.00,,---,0.19,VWS V13.01,2013-05-30 00:45:00,
2013-05-29 20:46:00,81.8,73.9,30.01,ENE,68,10.7,10.7,77,0.00,,---,0.19,VWS V13.01,2013-05-30 00:46:00,
2013-05-29 20:47:00,82.0,74.5,30.01,East,90,8.9,8.9,78,0.00,,---,0.19,VWS V13.01,2013-05-30 00:47:00,
2013-05-29 20:49:00,82.0,74.5,30.01,East,90,11.4,11.4,78,0.00,,---,0.19,VWS V13.01,2013-05-30 00:49:00,
2013-05-29 20:50:00,81.8,74.3,30.01,East,90,0.0,0.0,78,0.00,,---,0.19,VWS V13.01,2013-05-30 00:50:00,
2013-05-29 20:51:00,81.8,74.3,30.01,ENE,68,10.2,10.2,78,0.00,,---,0.19,VWS V13.01,2013-05-30 00:51:00,
2013-05-29 20:52:00,81.8,74.3,30.02,ENE,68,8.5,8.5,78,0.00,,---,0.19,VWS V13.01,2013-05-30 00:52:00,
2013-05-29 20:54:00,81.6,73.7,30.02,East,90,0.0,0.0,77,0.00,,---,0.19,VWS V13.01,2013-05-30 00:54:00,
2013-05-29 20:55:00,81.6,73.7,30.02,East,90,6.0,6.0,77,0.00,,---,0.19,VWS V13.01,2013-05-30 00:55:00,
2013-05-29 20:56:00,81.6,73.7,30.02,East,90,6.4,6.4,77,0.00,,---,0.19,VWS V13.01,2013-05-30 00:56:00,
2013-05-29 20:57:00,81.6,73.7,30.02,ENE,68,10.2,10.2,77,0.00,,---,0.19,VWS V13.01,2013-05-30 00:57:00,
2013-05-29 20:59:00,81.6,73.7,30.02,NE,45,4.4,4.4,77,0.00,,---,0.19,VWS V13.01,2013-05-30 00:59:00,
2013-05-29 21:00:00,81.6,73.7,30.02,East,90,5.5,5.5,77,0.00,,---,0.19,VWS V13.01,2013-05-30 01:00:00,
2013-05-29 21:01:00,81.6,74.1,30.01,ENE,68,4.2,4.2,78,0.00,,---,0.19,VWS V13.01,2013-05-30 01:01:00,
2013-05-29 21:02:00,81.6,74.1,30.01,ENE,68,6.0,6.0,78,0.00,,---,0.19,VWS V13.01,2013-05-30 01:02:00,
2013-05-29 21:04:00,81.6,74.1,30.02,ESE,112,3.8,3.8,78,0.00,,---,0.19,VWS V13.01,2013-05-30 01:04:00,
2013-05-29 21:05:00,81.6,74.1,30.02,ESE,112,18.1,18.1,78,0.00,,---,0.19,VWS V13.01,2013-05-30 01:05:00,
2013-05-29 21:06:00,81.6,74.1,30.02,ESE,112,18.1,18.1,78,0.00,,---,0.19,VWS V13.01,2013-05-30 01:06:00,
2013-05-29 21:07:00,81.6,74.1,30.02,NNE,22,8.0,8.0,78,0.00,,---,0.19,VWS V13.01,2013-05-30 01:07:00,
2013-05-29 21:09:00,81.6,74.1,30.02,East,90,5.3,5.3,78,0.00,,---,0.19,VWS V13.01,2013-05-30 01:09:00,
2013-05-29 21:10:00,81.6,74.1,30.02,ENE,68,10.2,10.2,78,0.00,,---,0.19,VWS V13.01,2013-05-30 01:10:00,
2013-05-29 21:11:00,81.6,74.1,30.02,ESE,112,5.8,5.8,78,0.00,,---,0.19,VWS V13.01,2013-05-30 01:11:00,
2013-05-29 21:12:00,81.6,74.1,30.02,ENE,68,7.8,7.8,78,0.00,,---,0.19,VWS V13.01,2013-05-30 01:12:00,
2013-05-29 21:13:00,81.6,74.1,30.02,ENE,68,4.0,4.0,78,0.00,,---,0.19,VWS V13.01,2013-05-30 01:13:00,
2013-05-29 21:14:00,81.6,74.1,30.02,SE,135,1.5,1.5,78,0.00,,---,0.19,VWS V13.01,2013-05-30 01:14:00,
2013-05-29 21:15:00,81.6,74.1,30.02,East,90,13.8,13.8,78,0.00,,---,0.19,VWS V13.01,2013-05-30 01:15:00,
2013-05-29 21:16:00,81.6,74.1,30.02,East,90,13.8,13.8,78,0.00,,---,0.19,VWS V13.01,2013-05-30 01:16:00,
2013-05-29 21:17:00,81.6,74.1,30.02,ENE,68,7.1,7.1,78,0.00,,---,0.19,VWS V13.01,2013-05-30 01:17:00,
2013-05-29 21:18:00,81.6,74.1,30.02,ENE,68,5.1,5.1,78,0.00,,---,0.19,VWS V13.01,2013-05-30 01:18:00,
2013-05-29 21:19:00,81.6,74.1,30.02,ESE,112,6.0,6.0,78,0.00,,---,0.19,VWS V13.01,2013-05-30 01:19:00,
2013-05-29 21:21:00,81.6,74.1,30.02,East,90,7.6,7.6,78,0.00,,---,0.19,VWS V13.01,2013-05-30 01:21:00,
2013-05-29 21:22:00,81.6,74.1,30.02,East,90,11.8,11.8,78,0.00,,---,0.19,VWS V13.01,2013-05-30 01:22:00,
2013-05-29 21:23:00,81.6,74.1,30.02,East,90,3.1,3.1,78,0.00,,---,0.19,VWS V13.01,2013-05-30 01:23:00,
2013-05-29 21:24:00,81.6,74.1,30.02,NE,45,8.7,8.7,78,0.00,,---,0.19,VWS V13.01,2013-05-30 01:24:00,
2013-05-29 21:26:00,81.6,74.1,30.02,East,90,9.8,9.8,78,0.00,,---,0.19,VWS V13.01,2013-05-30 01:26:00,
2013-05-29 21:27:00,81.6,74.1,30.02,SE,135,4.9,4.9,78,0.00,,---,0.19,VWS V13.01,2013-05-30 01:27:00,
2013-05-29 21:28:00,81.6,74.1,30.02,East,90,17.6,17.6,78,0.00,,---,0.19,VWS V13.01,2013-05-30 01:28:00,
2013-05-29 21:29:00,81.6,74.1,30.02,SE,135,6.0,6.0,78,0.00,,---,0.19,VWS V13.01,2013-05-30 01:29:00,
2013-05-29 21:31:00,81.5,74.0,30.02,ENE,68,13.4,13.4,78,0.00,,---,0.19,VWS V13.01,2013-05-30 01:31:00,
2013-05-29 21:32:00,81.5,74.0,30.03,ESE,112,3.1,3.1,78,0.00,,---,0.19,VWS V13.01,2013-05-30 01:32:00,
2013-05-29 21:33:00,81.5,74.0,30.02,East,90,12.3,12.3,78,0.00,,---,0.19,VWS V13.01,2013-05-30 01:33:00,
2013-05-29 21:34:00,81.5,74.0,30.02,ESE,112,6.0,6.0,78,0.00,,---,0.19,VWS V13.01,2013-05-30 01:34:00,
2013-05-29 21:36:00,81.5,74.0,30.02,ESE,112,0.8,0.8,78,0.00,,---,0.19,VWS V13.01,2013-05-30 01:36:00,
2013-05-29 21:37:00,81.5,74.0,30.03,ENE,68,8.0,8.0,78,0.00,,---,0.19,VWS V13.01,2013-05-30 01:37:00,
2013-05-29 21:38:00,81.5,74.0,30.03,East,90,4.2,4.2,78,0.00,,---,0.19,VWS V13.01,2013-05-30 01:38:00,
2013-05-29 21:39:00,81.5,74.0,30.03,East,90,9.1,9.1,78,0.00,,---,0.19,VWS V13.01,2013-05-30 01:39:00,
2013-05-29 21:41:00,81.5,74.0,30.03,SSE,158,5.1,5.1,78,0.00,,---,0.19,VWS V13.01,2013-05-30 01:41:00,
2013-05-29 21:42:00,81.5,74.0,30.03,East,90,6.4,6.4,78,0.00,,---,0.19,VWS V13.01,2013-05-30 01:42:00,
2013-05-29 21:43:00,81.5,74.0,30.03,ENE,68,5.8,5.8,78,0.00,,---,0.19,VWS V13.01,2013-05-30 01:43:00,
2013-05-29 21:45:00,81.5,74.0,30.03,ESE,112,4.9,4.9,78,0.00,,---,0.19,VWS V13.01,2013-05-30 01:45:00,
2013-05-29 21:46:00,81.5,74.0,30.03,SSE,158,4.9,4.9,78,0.00,,---,0.19,VWS V13.01,2013-05-30 01:46:00,
2013-05-29 21:47:00,81.5,74.0,30.03,ESE,112,1.5,4.9,78,0.00,,---,0.19,VWS V13.01,2013-05-30 01:47:00,
2013-05-29 21:48:00,81.5,74.0,30.03,ESE,112,1.5,1.5,78,0.00,,---,0.19,VWS V13.01,2013-05-30 01:48:00,
2013-05-29 21:50:00,81.5,74.0,30.03,East,90,7.3,7.3,78,0.00,,---,0.19,VWS V13.01,2013-05-30 01:50:00,
2013-05-29 21:51:00,81.5,74.0,30.03,ESE,112,7.3,7.3,78,0.00,,---,0.19,VWS V13.01,2013-05-30 01:51:00,
2013-05-29 21:52:00,81.5,74.0,30.03,SE,135,2.0,2.0,78,0.00,,---,0.19,VWS V13.01,2013-05-30 01:52:00,
2013-05-29 21:53:00,81.5,74.0,30.03,NW,315,0.0,0.0,78,0.00,,---,0.19,VWS V13.01,2013-05-30 01:53:00,
2013-05-29 21:55:00,81.5,74.0,30.03,ENE,68,6.7,6.7,78,0.00,,---,0.19,VWS V13.01,2013-05-30 01:55:00,
2013-05-29 21:56:00,81.5,74.0,30.03,ENE,68,6.7,6.7,78,0.00,,---,0.19,VWS V13.01,2013-05-30 01:56:00,
2013-05-29 21:57:00,81.5,74.0,30.04,East,90,14.5,14.5,78,0.00,,---,0.19,VWS V13.01,2013-05-30 01:57:00,
2013-05-29 21:58:00,81.5,74.0,30.04,ENE,68,7.8,7.8,78,0.00,,---,0.19,VWS V13.01,2013-05-30 01:58:00,
2013-05-29 22:00:00,81.5,74.0,30.03,ESE,112,10.5,10.5,78,0.00,,---,0.19,VWS V13.01,2013-05-30 02:00:00,
2013-05-29 22:01:00,81.5,74.0,30.03,ESE,112,4.9,4.9,78,0.00,,---,0.19,VWS V13.01,2013-05-30 02:01:00,
2013-05-29 22:02:00,81.5,74.0,30.03,ENE,68,9.6,9.6,78,0.00,,---,0.19,VWS V13.01,2013-05-30 02:02:00,
2013-05-29 22:03:00,81.5,74.4,30.03,ESE,112,2.6,2.6,79,0.00,,---,0.19,VWS V13.01,2013-05-30 02:03:00,
2013-05-29 22:05:00,81.5,74.0,30.03,ENE,68,6.2,6.2,78,0.00,,---,0.19,VWS V13.01,2013-05-30 02:05:00,
2013-05-29 22:06:00,81.5,74.0,30.04,East,90,15.8,15.8,78,0.00,,---,0.19,VWS V13.01,2013-05-30 02:06:00,
2013-05-29 22:07:00,81.5,74.0,30.04,East,90,7.8,7.8,78,0.00,,---,0.19,VWS V13.01,2013-05-30 02:07:00,
2013-05-29 22:08:00,81.5,74.0,30.03,NE,45,7.8,7.8,78,0.00,,---,0.19,VWS V13.01,2013-05-30 02:08:00,
2013-05-29 22:10:00,81.5,74.0,30.03,NE,45,2.2,2.2,78,0.00,,---,0.19,VWS V13.01,2013-05-30 02:10:00,
2013-05-29 22:11:00,81.3,73.8,30.03,ENE,68,3.8,3.8,78,0.00,,---,0.19,VWS V13.01,2013-05-30 02:11:00,
2013-05-29 22:12:00,81.5,74.4,30.03,ENE,68,3.3,3.3,79,0.00,,---,0.19,VWS V13.01,2013-05-30 02:12:00,
2013-05-29 22:13:00,81.3,74.2,30.03,ENE,68,5.1,5.1,79,0.00,,---,0.19,VWS V13.01,2013-05-30 02:13:00,
2013-05-29 22:15:00,81.3,74.2,30.03,ENE,68,6.4,6.4,79,0.00,,---,0.19,VWS V13.01,2013-05-30 02:15:00,
2013-05-29 22:16:00,81.3,74.2,30.03,ENE,68,4.0,4.0,79,0.00,,---,0.19,VWS V13.01,2013-05-30 02:16:00,
2013-05-29 22:17:00,81.3,74.2,30.03,ENE,68,0.0,0.0,79,0.00,,---,0.19,VWS V13.01,2013-05-30 02:17:00,
2013-05-29 22:18:00,81.3,74.2,30.03,ENE,68,0.0,0.0,79,0.00,,---,0.19,VWS V13.01,2013-05-30 02:18:00,
2013-05-29 22:20:00,81.3,74.2,30.03,NE,45,10.5,10.5,79,0.00,,---,0.19,VWS V13.01,2013-05-30 02:20:00,
2013-05-29 22:21:00,81.3,74.2,30.03,ENE,68,9.6,9.6,79,0.00,,---,0.19,VWS V13.01,2013-05-30 02:21:00,
2013-05-29 22:23:00,81.3,74.2,30.03,East,90,3.1,3.1,79,0.00,,---,0.19,VWS V13.01,2013-05-30 02:23:00,
2013-05-29 22:25:00,81.3,74.2,30.03,East,90,4.9,4.9,79,0.00,,---,0.19,VWS V13.01,2013-05-30 02:25:00,
2013-05-29 22:26:00,81.3,74.2,30.03,ENE,68,14.5,14.5,79,0.00,,---,0.19,VWS V13.01,2013-05-30 02:26:00,
2013-05-29 22:28:00,81.3,73.8,30.03,ESE,112,12.7,12.7,78,0.00,,---,0.19,VWS V13.01,2013-05-30 02:28:00,
2013-05-29 22:30:00,81.3,73.8,30.03,ENE,68,6.2,6.2,78,0.00,,---,0.19,VWS V13.01,2013-05-30 02:30:00,
2013-05-29 22:31:00,81.3,73.8,30.03,ENE,68,8.2,8.2,78,0.00,,---,0.19,VWS V13.01,2013-05-30 02:31:00,
2013-05-29 22:33:00,81.3,73.8,30.03,East,90,12.0,12.0,78,0.00,,---,0.19,VWS V13.01,2013-05-30 02:33:00,
2013-05-29 22:35:00,81.3,73.8,30.03,ENE,68,6.9,6.9,78,0.00,,---,0.19,VWS V13.01,2013-05-30 02:35:00,
2013-05-29 22:36:00,81.3,73.8,30.03,ENE,68,7.1,8.0,78,0.00,,---,0.19,VWS V13.01,2013-05-30 02:36:00,
2013-05-29 22:38:00,81.3,73.8,30.03,NNE,22,0.0,0.0,78,0.00,,---,0.19,VWS V13.01,2013-05-30 02:38:00,
2013-05-29 22:40:00,81.3,74.2,30.03,ESE,112,15.6,15.6,79,0.00,,---,0.19,VWS V13.01,2013-05-30 02:40:00,
2013-05-29 22:41:00,81.3,74.2,30.03,East,90,13.8,13.8,79,0.00,,---,0.19,VWS V13.01,2013-05-30 02:41:00,
2013-05-29 22:43:00,81.3,74.2,30.03,ENE,68,10.0,10.0,79,0.00,,---,0.19,VWS V13.01,2013-05-30 02:43:00,
2013-05-29 22:46:00,81.3,74.2,30.03,NE,45,5.1,5.1,79,0.00,,---,0.19,VWS V13.01,2013-05-30 02:46:00,
2013-05-29 22:48:00,81.3,74.2,30.04,ESE,112,5.8,5.8,79,0.00,,---,0.19,VWS V13.01,2013-05-30 02:48:00,
2013-05-29 22:51:00,81.1,74.0,30.03,SSE,158,4.0,4.0,79,0.00,,---,0.19,VWS V13.01,2013-05-30 02:51:00,
2013-05-29 22:53:00,81.3,74.2,30.03,South,180,0.0,0.0,79,0.00,,---,0.19,VWS V13.01,2013-05-30 02:53:00,
2013-05-29 22:54:00,81.1,74.0,30.03,South,180,4.0,4.0,79,0.00,,---,0.19,VWS V13.01,2013-05-30 02:54:00,
2013-05-29 22:56:00,81.1,74.0,30.03,NE,45,0.0,0.0,79,0.00,,---,0.19,VWS V13.01,2013-05-30 02:56:00,
2013-05-29 22:57:00,81.1,74.0,30.04,NE,45,4.9,4.9,79,0.00,,---,0.19,VWS V13.01,2013-05-30 02:57:00,
2013-05-29 22:58:00,81.1,74.0,30.03,ENE,68,0.8,0.8,79,0.00,,---,0.19,VWS V13.01,2013-05-30 02:58:00,
2013-05-29 22:59:00,81.1,74.0,30.03,East,90,10.5,10.5,79,0.00,,---,0.19,VWS V13.01,2013-05-30 02:59:00,
2013-05-29 23:01:00,81.1,74.0,30.03,ESE,112,6.9,6.9,79,0.00,,---,0.19,VWS V13.01,2013-05-30 03:01:00,
2013-05-29 23:02:00,81.1,74.0,30.03,NE,45,2.4,2.4,79,0.00,,---,0.19,VWS V13.01,2013-05-30 03:02:00,
2013-05-29 23:03:00,81.3,74.2,30.03,ENE,68,6.9,6.9,79,0.00,,---,0.19,VWS V13.01,2013-05-30 03:03:00,
2013-05-29 23:04:00,81.1,74.0,30.04,East,90,4.6,4.6,79,0.00,,---,0.19,VWS V13.01,2013-05-30 03:04:00,
2013-05-29 23:06:00,81.1,74.0,30.04,ESE,112,10.5,10.5,79,0.00,,---,0.19,VWS V13.01,2013-05-30 03:06:00,
2013-05-29 23:07:00,81.1,74.0,30.04,East,90,7.8,7.8,79,0.00,,---,0.19,VWS V13.01,2013-05-30 03:07:00,
2013-05-29 23:08:00,81.1,74.0,30.04,ESE,112,3.8,3.8,79,0.00,,---,0.19,VWS V13.01,2013-05-30 03:08:00,
2013-05-29 23:09:00,81.1,74.0,30.04,SE,135,4.2,4.2,79,0.00,,---,0.19,VWS V13.01,2013-05-30 03:09:00,
2013-05-29 23:11:00,81.1,74.0,30.04,ENE,68,4.6,4.6,79,0.00,,---,0.19,VWS V13.01,2013-05-30 03:11:00,
2013-05-29 23:12:00,81.1,74.0,30.04,East,90,10.5,10.5,79,0.00,,---,0.19,VWS V13.01,2013-05-30 03:12:00,
2013-05-29 23:13:00,81.1,74.0,30.04,NNE,22,3.1,3.1,79,0.00,,---,0.19,VWS V13.01,2013-05-30 03:13:00,
2013-05-29 23:14:00,81.1,74.0,30.04,ENE,68,10.9,10.9,79,0.00,,---,0.19,VWS V13.01,2013-05-30 03:14:00,
2013-05-29 23:16:00,81.1,74.0,30.04,ENE,68,8.2,8.2,79,0.00,,---,0.19,VWS V13.01,2013-05-30 03:16:00,
2013-05-29 23:17:00,81.1,74.0,30.04,NE,45,2.2,2.2,79,0.00,,---,0.19,VWS V13.01,2013-05-30 03:17:00,
2013-05-29 23:18:00,81.3,74.2,30.04,North,0,0.0,0.0,79,0.00,,---,0.19,VWS V13.01,2013-05-30 03:18:00,
2013-05-29 23:19:00,81.1,74.0,30.04,East,90,0.0,0.0,79,0.00,,---,0.19,VWS V13.01,2013-05-30 03:19:00,
2013-05-29 23:21:00,81.1,74.0,30.04,ENE,68,6.7,6.7,79,0.00,,---,0.19,VWS V13.01,2013-05-30 03:21:00,
2013-05-29 23:22:00,81.1,74.0,30.04,ESE,112,11.6,11.6,79,0.00,,---,0.19,VWS V13.01,2013-05-30 03:22:00,
2013-05-29 23:24:00,81.1,74.0,30.04,NE,45,4.6,4.6,79,0.00,,---,0.19,VWS V13.01,2013-05-30 03:24:00,
2013-05-29 23:26:00,81.1,74.0,30.04,East,90,4.2,4.2,79,0.00,,---,0.19,VWS V13.01,2013-05-30 03:26:00,
2013-05-29 23:27:00,81.1,74.0,30.04,East,90,6.7,6.7,79,0.00,,---,0.19,VWS V13.01,2013-05-30 03:27:00,
2013-05-29 23:29:00,81.1,74.0,30.04,ESE,112,6.7,6.7,79,0.00,,---,0.19,VWS V13.01,2013-05-30 03:29:00,
2013-05-29 23:31:00,81.1,74.0,30.04,East,90,12.0,12.0,79,0.00,,---,0.19,VWS V13.01,2013-05-30 03:31:00,
2013-05-29 23:32:00,81.1,74.0,30.04,ESE,112,3.5,3.5,79,0.00,,---,0.19,VWS V13.01,2013-05-30 03:32:00,
2013-05-29 23:34:00,81.1,74.0,30.04,ESE,112,8.5,8.5,79,0.00,,---,0.19,VWS V13.01,2013-05-30 03:34:00,
2013-05-29 23:36:00,81.1,74.0,30.04,ESE,112,15.6,15.6,79,0.00,,---,0.19,VWS V13.01,2013-05-30 03:36:00,
2013-05-29 23:37:00,81.1,74.0,30.04,East,90,10.7,10.7,79,0.00,,---,0.19,VWS V13.01,2013-05-30 03:37:00,
2013-05-29 23:39:00,81.1,74.3,30.04,East,90,4.0,4.0,80,0.00,,---,0.19,VWS V13.01,2013-05-30 03:39:00,
2013-05-29 23:41:00,81.1,74.0,30.04,NE,45,0.0,0.0,79,0.00,,---,0.19,VWS V13.01,2013-05-30 03:41:00,
2013-05-29 23:42:00,81.1,74.0,30.04,ENE,68,9.1,9.1,79,0.00,,---,0.19,VWS V13.01,2013-05-30 03:42:00,
2013-05-29 23:44:00,81.1,74.0,30.04,NNW,338,0.0,0.0,79,0.00,,---,0.19,VWS V13.01,2013-05-30 03:44:00,
2013-05-29 23:46:00,81.1,74.0,30.04,NE,45,0.0,0.0,79,0.00,,---,0.19,VWS V13.01,2013-05-30 03:46:00,
2013-05-29 23:47:00,81.1,74.0,30.03,SW,225,0.0,0.0,79,0.00,,---,0.19,VWS V13.01,2013-05-30 03:47:00,
2013-05-29 23:49:00,81.1,74.0,30.03,ENE,68,5.8,5.8,79,0.00,,---,0.19,VWS V13.01,2013-05-30 03:49:00,
2013-05-29 23:52:00,81.1,74.3,30.03,ESE,112,10.2,10.2,80,0.00,,---,0.19,VWS V13.01,2013-05-30 03:52:00,
2013-05-29 23:54:00,81.1,74.3,30.03,ENE,68,2.0,2.0,80,0.00,,---,0.19,VWS V13.01,2013-05-30 03:54:00,
2013-05-29 23:57:00,80.9,74.2,30.03,NNE,22,2.2,2.2,80,0.00,,---,0.00,VWS V13.01,2013-05-30 03:57:00,
2013-05-29 23:59:00,80.9,74.2,30.03,ENE,68,5.8,5.8,80,0.00,,---,0.00,VWS V13.01,2013-05-30 03:59:00,